<?xml version="1.0" encoding="UTF-8" standalone="no" ?>
<gpx xmlns="http://www.topografix.com/GPX/1/1" xmlns:xsi="http://www.w3.org/2001/XMLSchema-instance" xsi:schemaLocation="http://www.topografix.com/GPX/1/1 http://www.topografix.com/GPX/1/1/gpx.xsd" version="1.1" creator="VisuGPX - https://www.visugpx.com">
  <metadata>
    <name>[VTT] Gaja-la-Selve</name>
    <desc><![CDATA[Stationnement devant la mairie. 
Départ à gauche face à la mairie.
Fait partie d'un parcours VTT balisé mais certaines balises sont effacées par le soleil donc peu voir pas lisibles. Il est possible d'aller plus loin (à priori jusqu'au lac de la ganguise).
Le parcours a été légèrement retravaillé pour supprimer les petites erreurs.
Pas forcément très compliqué ni très technique mais ce n'est quasiment jamais plat.]]></desc>
  </metadata>
  <trk>
    <name><![CDATA[[VTT] Gaja-la-Selve]]></name>
    <trkseg>
      <trkpt lat="43.19495" lon="1.89623">
        <ele>326.8</ele>
        <time>2024-08-14T16:18:52.000Z</time>
      </trkpt>
      <trkpt lat="43.19495" lon="1.89626">
        <ele>327</ele>
        <time>2024-08-14T16:18:52.001Z</time>
      </trkpt>
      <trkpt lat="43.19493" lon="1.89635">
        <ele>327</ele>
        <time>2024-08-14T16:18:52.003Z</time>
      </trkpt>
      <trkpt lat="43.19484" lon="1.89656">
        <ele>326.8</ele>
        <time>2024-08-14T16:18:52.010Z</time>
      </trkpt>
      <trkpt lat="43.19476" lon="1.89674">
        <ele>326.8</ele>
        <time>2024-08-14T16:18:52.020Z</time>
      </trkpt>
      <trkpt lat="43.19469" lon="1.89682">
        <ele>326.6</ele>
        <time>2024-08-14T16:18:52.033Z</time>
      </trkpt>
      <trkpt lat="43.19464" lon="1.89684">
        <ele>326.6</ele>
        <time>2024-08-14T16:18:52.047Z</time>
      </trkpt>
      <trkpt lat="43.19437" lon="1.89687">
        <ele>326.2</ele>
        <time>2024-08-14T16:18:52.068Z</time>
      </trkpt>
      <trkpt lat="43.19423" lon="1.89676">
        <ele>326</ele>
        <time>2024-08-14T16:18:52.092Z</time>
      </trkpt>
      <trkpt lat="43.19413" lon="1.89665">
        <ele>326</ele>
        <time>2024-08-14T16:18:52.120Z</time>
      </trkpt>
      <trkpt lat="43.19403" lon="1.89651">
        <ele>326</ele>
        <time>2024-08-14T16:18:52.151Z</time>
      </trkpt>
      <trkpt lat="43.19398" lon="1.8964">
        <ele>325.8</ele>
        <time>2024-08-14T16:18:52.185Z</time>
      </trkpt>
      <trkpt lat="43.19394" lon="1.89629">
        <ele>325.4</ele>
        <time>2024-08-14T16:18:52.221Z</time>
      </trkpt>
      <trkpt lat="43.19385" lon="1.89589">
        <ele>324.4</ele>
        <time>2024-08-14T16:18:52.264Z</time>
      </trkpt>
      <trkpt lat="43.19381" lon="1.89575">
        <ele>323.6</ele>
        <time>2024-08-14T16:18:52.310Z</time>
      </trkpt>
      <trkpt lat="43.19377" lon="1.89561">
        <ele>322.4</ele>
        <time>2024-08-14T16:18:52.359Z</time>
      </trkpt>
      <trkpt lat="43.19374" lon="1.89549">
        <ele>322</ele>
        <time>2024-08-14T16:18:52.410Z</time>
      </trkpt>
      <trkpt lat="43.19369" lon="1.89538">
        <ele>321</ele>
        <time>2024-08-14T16:18:52.463Z</time>
      </trkpt>
      <trkpt lat="43.19364" lon="1.8953">
        <ele>320.4</ele>
        <time>2024-08-14T16:18:52.518Z</time>
      </trkpt>
      <trkpt lat="43.19358" lon="1.89524">
        <ele>319.2</ele>
        <time>2024-08-14T16:18:52.575Z</time>
      </trkpt>
      <trkpt lat="43.19345" lon="1.89518">
        <ele>318</ele>
        <time>2024-08-14T16:18:52.635Z</time>
      </trkpt>
      <trkpt lat="43.19325" lon="1.89518">
        <ele>317</ele>
        <time>2024-08-14T16:18:52.700Z</time>
      </trkpt>
      <trkpt lat="43.19313" lon="1.89516">
        <ele>316.6</ele>
        <time>2024-08-14T16:18:52.768Z</time>
      </trkpt>
      <trkpt lat="43.19302" lon="1.89516">
        <ele>316</ele>
        <time>2024-08-14T16:18:52.839Z</time>
      </trkpt>
      <trkpt lat="43.19276" lon="1.89515">
        <ele>314.8</ele>
        <time>2024-08-14T16:18:52.916Z</time>
      </trkpt>
      <trkpt lat="43.19263" lon="1.89516">
        <ele>313.8</ele>
        <time>2024-08-14T16:18:52.996Z</time>
      </trkpt>
      <trkpt lat="43.19251" lon="1.89518">
        <ele>313.2</ele>
        <time>2024-08-14T16:18:53.079Z</time>
      </trkpt>
      <trkpt lat="43.19233" lon="1.89519">
        <ele>311.8</ele>
        <time>2024-08-14T16:18:53.167Z</time>
      </trkpt>
      <trkpt lat="43.19226" lon="1.89519">
        <ele>310.6</ele>
        <time>2024-08-14T16:18:53.256Z</time>
      </trkpt>
      <trkpt lat="43.19215" lon="1.89518">
        <ele>308.2</ele>
        <time>2024-08-14T16:18:53.348Z</time>
      </trkpt>
      <trkpt lat="43.19208" lon="1.89518">
        <ele>305.4</ele>
        <time>2024-08-14T16:18:53.442Z</time>
      </trkpt>
      <trkpt lat="43.19201" lon="1.89519">
        <ele>304.4</ele>
        <time>2024-08-14T16:18:53.538Z</time>
      </trkpt>
      <trkpt lat="43.19196" lon="1.89519">
        <ele>301.8</ele>
        <time>2024-08-14T16:18:53.635Z</time>
      </trkpt>
      <trkpt lat="43.19192" lon="1.89519">
        <ele>300.8</ele>
        <time>2024-08-14T16:18:53.733Z</time>
      </trkpt>
      <trkpt lat="43.19189" lon="1.89517">
        <ele>298.8</ele>
        <time>2024-08-14T16:18:53.832Z</time>
      </trkpt>
      <trkpt lat="43.19186" lon="1.89515">
        <ele>296.6</ele>
        <time>2024-08-14T16:18:53.932Z</time>
      </trkpt>
      <trkpt lat="43.19184" lon="1.89514">
        <ele>297.97</ele>
        <time>2024-08-14T16:18:54.032Z</time>
      </trkpt>
      <trkpt lat="43.19184" lon="1.89514">
        <ele>297.98</ele>
        <time>2024-08-14T16:18:54.132Z</time>
      </trkpt>
      <trkpt lat="43.19184" lon="1.89522">
        <ele>297.8</ele>
        <time>2024-08-14T16:18:54.233Z</time>
      </trkpt>
      <trkpt lat="43.19165" lon="1.89522">
        <ele>296.26</ele>
        <time>2024-08-14T16:18:54.339Z</time>
      </trkpt>
      <trkpt lat="43.1918" lon="1.89481">
        <ele>294.6</ele>
        <time>2024-08-14T16:18:54.453Z</time>
      </trkpt>
      <trkpt lat="43.1919" lon="1.89465">
        <ele>293.3</ele>
        <time>2024-08-14T16:18:54.571Z</time>
      </trkpt>
      <trkpt lat="43.192" lon="1.89456">
        <ele>292.27</ele>
        <time>2024-08-14T16:18:54.692Z</time>
      </trkpt>
      <trkpt lat="43.19209" lon="1.89451">
        <ele>291.56</ele>
        <time>2024-08-14T16:18:54.815Z</time>
      </trkpt>
      <trkpt lat="43.19252" lon="1.89442">
        <ele>291.46</ele>
        <time>2024-08-14T16:18:54.949Z</time>
      </trkpt>
      <trkpt lat="43.19325" lon="1.89421">
        <ele>290.27</ele>
        <time>2024-08-14T16:18:55.101Z</time>
      </trkpt>
      <trkpt lat="43.19407" lon="1.89384">
        <ele>290.29</ele>
        <time>2024-08-14T16:18:55.274Z</time>
      </trkpt>
      <trkpt lat="43.19405" lon="1.89378">
        <ele>289.97</ele>
        <time>2024-08-14T16:18:55.449Z</time>
      </trkpt>
      <trkpt lat="43.19405" lon="1.89378">
        <ele>293.93</ele>
        <time>2024-08-14T16:18:55.624Z</time>
      </trkpt>
      <trkpt lat="43.19382" lon="1.89319">
        <ele>294.62</ele>
        <time>2024-08-14T16:18:55.811Z</time>
      </trkpt>
      <trkpt lat="43.19346" lon="1.89212">
        <ele>296.6</ele>
        <time>2024-08-14T16:18:56.019Z</time>
      </trkpt>
      <trkpt lat="43.19322" lon="1.89142">
        <ele>300.12</ele>
        <time>2024-08-14T16:18:56.241Z</time>
      </trkpt>
      <trkpt lat="43.19319" lon="1.89121">
        <ele>303.37</ele>
        <time>2024-08-14T16:18:56.466Z</time>
      </trkpt>
      <trkpt lat="43.1932" lon="1.891">
        <ele>306.61</ele>
        <time>2024-08-14T16:18:56.695Z</time>
      </trkpt>
      <trkpt lat="43.19323" lon="1.89085">
        <ele>309.58</ele>
        <time>2024-08-14T16:18:56.927Z</time>
      </trkpt>
      <trkpt lat="43.19377" lon="1.88949">
        <ele>313.78</ele>
        <time>2024-08-14T16:18:57.187Z</time>
      </trkpt>
      <trkpt lat="43.19388" lon="1.88909">
        <ele>316.8</ele>
        <time>2024-08-14T16:18:57.454Z</time>
      </trkpt>
      <trkpt lat="43.19389" lon="1.8889">
        <ele>319.15</ele>
        <time>2024-08-14T16:18:57.725Z</time>
      </trkpt>
      <trkpt lat="43.194" lon="1.88847">
        <ele>321.09</ele>
        <time>2024-08-14T16:18:58.004Z</time>
      </trkpt>
      <trkpt lat="43.19417" lon="1.88811">
        <ele>322.55</ele>
        <time>2024-08-14T16:18:58.291Z</time>
      </trkpt>
      <trkpt lat="43.19428" lon="1.88801">
        <ele>323.6</ele>
        <time>2024-08-14T16:18:58.581Z</time>
      </trkpt>
      <trkpt lat="43.19434" lon="1.88729">
        <ele>324.04</ele>
        <time>2024-08-14T16:18:58.884Z</time>
      </trkpt>
      <trkpt lat="43.19428" lon="1.88712">
        <ele>324.49</ele>
        <time>2024-08-14T16:18:59.190Z</time>
      </trkpt>
      <trkpt lat="43.1942" lon="1.88704">
        <ele>324.81</ele>
        <time>2024-08-14T16:18:59.499Z</time>
      </trkpt>
      <trkpt lat="43.19413" lon="1.88703">
        <ele>325.01</ele>
        <time>2024-08-14T16:18:59.810Z</time>
      </trkpt>
      <trkpt lat="43.19422" lon="1.88631">
        <ele>325.57</ele>
        <time>2024-08-14T16:19:00.134Z</time>
      </trkpt>
      <trkpt lat="43.19434" lon="1.88575">
        <ele>325.92</ele>
        <time>2024-08-14T16:19:00.468Z</time>
      </trkpt>
      <trkpt lat="43.19444" lon="1.88539">
        <ele>326.07</ele>
        <time>2024-08-14T16:19:00.809Z</time>
      </trkpt>
      <trkpt lat="43.1945" lon="1.88509">
        <ele>326.23</ele>
        <time>2024-08-14T16:19:01.156Z</time>
      </trkpt>
      <trkpt lat="43.19453" lon="1.88484">
        <ele>326.5</ele>
        <time>2024-08-14T16:19:01.507Z</time>
      </trkpt>
      <trkpt lat="43.19453" lon="1.88412">
        <ele>326.82</ele>
        <time>2024-08-14T16:19:01.871Z</time>
      </trkpt>
      <trkpt lat="43.19529" lon="1.88447">
        <ele>326.97</ele>
        <time>2024-08-14T16:19:02.255Z</time>
      </trkpt>
      <trkpt lat="43.19539" lon="1.88446">
        <ele>327.44</ele>
        <time>2024-08-14T16:19:02.641Z</time>
      </trkpt>
      <trkpt lat="43.19602" lon="1.88408">
        <ele>328.3</ele>
        <time>2024-08-14T16:19:03.044Z</time>
      </trkpt>
      <trkpt lat="43.19635" lon="1.88387">
        <ele>329.22</ele>
        <time>2024-08-14T16:19:03.456Z</time>
      </trkpt>
      <trkpt lat="43.19665" lon="1.88329">
        <ele>330.38</ele>
        <time>2024-08-14T16:19:03.881Z</time>
      </trkpt>
      <trkpt lat="43.19688" lon="1.88314">
        <ele>331.6</ele>
        <time>2024-08-14T16:19:04.312Z</time>
      </trkpt>
      <trkpt lat="43.19715" lon="1.88305">
        <ele>332.96</ele>
        <time>2024-08-14T16:19:04.750Z</time>
      </trkpt>
      <trkpt lat="43.19731" lon="1.88294">
        <ele>334.51</ele>
        <time>2024-08-14T16:19:05.192Z</time>
      </trkpt>
      <trkpt lat="43.19778" lon="1.88223">
        <ele>336.73</ele>
        <time>2024-08-14T16:19:05.651Z</time>
      </trkpt>
      <trkpt lat="43.19791" lon="1.88217">
        <ele>338.66</ele>
        <time>2024-08-14T16:19:06.114Z</time>
      </trkpt>
      <trkpt lat="43.19833" lon="1.88223">
        <ele>340.81</ele>
        <time>2024-08-14T16:19:06.587Z</time>
      </trkpt>
      <trkpt lat="43.19842" lon="1.8822">
        <ele>342.86</ele>
        <time>2024-08-14T16:19:07.062Z</time>
      </trkpt>
      <trkpt lat="43.19842" lon="1.8822">
        <ele>344.96</ele>
        <time>2024-08-14T16:19:07.537Z</time>
      </trkpt>
      <trkpt lat="43.19886" lon="1.88178">
        <ele>347.27</ele>
        <time>2024-08-14T16:19:08.026Z</time>
      </trkpt>
      <trkpt lat="43.19941" lon="1.88147">
        <ele>349.66</ele>
        <time>2024-08-14T16:19:08.529Z</time>
      </trkpt>
      <trkpt lat="43.19964" lon="1.88131">
        <ele>351.99</ele>
        <time>2024-08-14T16:19:09.038Z</time>
      </trkpt>
      <trkpt lat="43.19998" lon="1.88076">
        <ele>354.69</ele>
        <time>2024-08-14T16:19:09.560Z</time>
      </trkpt>
      <trkpt lat="43.20008" lon="1.88068">
        <ele>357.21</ele>
        <time>2024-08-14T16:19:10.085Z</time>
      </trkpt>
      <trkpt lat="43.20028" lon="1.88058">
        <ele>359.74</ele>
        <time>2024-08-14T16:19:10.615Z</time>
      </trkpt>
      <trkpt lat="43.20043" lon="1.88049">
        <ele>362.12</ele>
        <time>2024-08-14T16:19:11.149Z</time>
      </trkpt>
      <trkpt lat="43.20062" lon="1.8803">
        <ele>364.46</ele>
        <time>2024-08-14T16:19:11.689Z</time>
      </trkpt>
      <trkpt lat="43.20074" lon="1.88008">
        <ele>366.71</ele>
        <time>2024-08-14T16:19:12.234Z</time>
      </trkpt>
      <trkpt lat="43.20087" lon="1.87971">
        <ele>368.86</ele>
        <time>2024-08-14T16:19:12.786Z</time>
      </trkpt>
      <trkpt lat="43.20096" lon="1.87931">
        <ele>370.99</ele>
        <time>2024-08-14T16:19:13.346Z</time>
      </trkpt>
      <trkpt lat="43.20113" lon="1.87899">
        <ele>372.9</ele>
        <time>2024-08-14T16:19:13.913Z</time>
      </trkpt>
      <trkpt lat="43.2019" lon="1.87811">
        <ele>375.12</ele>
        <time>2024-08-14T16:19:14.505Z</time>
      </trkpt>
      <trkpt lat="43.20201" lon="1.87806">
        <ele>376.41</ele>
        <time>2024-08-14T16:19:15.100Z</time>
      </trkpt>
      <trkpt lat="43.20221" lon="1.87803">
        <ele>377.47</ele>
        <time>2024-08-14T16:19:15.700Z</time>
      </trkpt>
      <trkpt lat="43.20245" lon="1.87795">
        <ele>378.37</ele>
        <time>2024-08-14T16:19:16.306Z</time>
      </trkpt>
      <trkpt lat="43.20311" lon="1.87754">
        <ele>379.17</ele>
        <time>2024-08-14T16:19:16.930Z</time>
      </trkpt>
      <trkpt lat="43.20337" lon="1.87734">
        <ele>379.52</ele>
        <time>2024-08-14T16:19:17.561Z</time>
      </trkpt>
      <trkpt lat="43.20338" lon="1.87724">
        <ele>379.71</ele>
        <time>2024-08-14T16:19:18.194Z</time>
      </trkpt>
      <trkpt lat="43.20333" lon="1.87701">
        <ele>379.66</ele>
        <time>2024-08-14T16:19:18.831Z</time>
      </trkpt>
      <trkpt lat="43.20332" lon="1.87692">
        <ele>379.52</ele>
        <time>2024-08-14T16:19:19.469Z</time>
      </trkpt>
      <trkpt lat="43.20339" lon="1.87691">
        <ele>379.27</ele>
        <time>2024-08-14T16:19:20.109Z</time>
      </trkpt>
      <trkpt lat="43.20372" lon="1.87682">
        <ele>378.89</ele>
        <time>2024-08-14T16:19:20.758Z</time>
      </trkpt>
      <trkpt lat="43.20387" lon="1.87684">
        <ele>378.44</ele>
        <time>2024-08-14T16:19:21.410Z</time>
      </trkpt>
      <trkpt lat="43.20398" lon="1.87681">
        <ele>377.93</ele>
        <time>2024-08-14T16:19:22.065Z</time>
      </trkpt>
      <trkpt lat="43.20405" lon="1.87676">
        <ele>377.34</ele>
        <time>2024-08-14T16:19:22.722Z</time>
      </trkpt>
      <trkpt lat="43.20457" lon="1.87607">
        <ele>376.76</ele>
        <time>2024-08-14T16:19:23.397Z</time>
      </trkpt>
      <trkpt lat="43.20485" lon="1.87577">
        <ele>376.06</ele>
        <time>2024-08-14T16:19:24.081Z</time>
      </trkpt>
      <trkpt lat="43.20551" lon="1.87535">
        <ele>375.37</ele>
        <time>2024-08-14T16:19:24.782Z</time>
      </trkpt>
      <trkpt lat="43.20584" lon="1.87507">
        <ele>374.32</ele>
        <time>2024-08-14T16:19:25.493Z</time>
      </trkpt>
      <trkpt lat="43.20605" lon="1.87498">
        <ele>373.33</ele>
        <time>2024-08-14T16:19:26.209Z</time>
      </trkpt>
      <trkpt lat="43.20676" lon="1.87486">
        <ele>372.32</ele>
        <time>2024-08-14T16:19:26.943Z</time>
      </trkpt>
      <trkpt lat="43.2069" lon="1.87487">
        <ele>371.59</ele>
        <time>2024-08-14T16:19:27.680Z</time>
      </trkpt>
      <trkpt lat="43.20721" lon="1.87495">
        <ele>370.83</ele>
        <time>2024-08-14T16:19:28.425Z</time>
      </trkpt>
      <trkpt lat="43.20731" lon="1.875">
        <ele>370.15</ele>
        <time>2024-08-14T16:19:29.173Z</time>
      </trkpt>
      <trkpt lat="43.20765" lon="1.8753">
        <ele>369.55</ele>
        <time>2024-08-14T16:19:29.931Z</time>
      </trkpt>
      <trkpt lat="43.20778" lon="1.87537">
        <ele>368.99</ele>
        <time>2024-08-14T16:19:30.692Z</time>
      </trkpt>
      <trkpt lat="43.20791" lon="1.87546">
        <ele>368.5</ele>
        <time>2024-08-14T16:19:31.456Z</time>
      </trkpt>
      <trkpt lat="43.20799" lon="1.87558">
        <ele>368.05</ele>
        <time>2024-08-14T16:19:32.223Z</time>
      </trkpt>
      <trkpt lat="43.20806" lon="1.87574">
        <ele>367.65</ele>
        <time>2024-08-14T16:19:32.994Z</time>
      </trkpt>
      <trkpt lat="43.20812" lon="1.87578">
        <ele>367.19</ele>
        <time>2024-08-14T16:19:33.766Z</time>
      </trkpt>
      <trkpt lat="43.20819" lon="1.87578">
        <ele>366.71</ele>
        <time>2024-08-14T16:19:34.540Z</time>
      </trkpt>
      <trkpt lat="43.2091" lon="1.87555">
        <ele>365.88</ele>
        <time>2024-08-14T16:19:35.337Z</time>
      </trkpt>
      <trkpt lat="43.2093" lon="1.87552">
        <ele>365.65</ele>
        <time>2024-08-14T16:19:36.139Z</time>
      </trkpt>
      <trkpt lat="43.20975" lon="1.87557">
        <ele>365.48</ele>
        <time>2024-08-14T16:19:36.952Z</time>
      </trkpt>
      <trkpt lat="43.20992" lon="1.87556">
        <ele>365.48</ele>
        <time>2024-08-14T16:19:37.769Z</time>
      </trkpt>
      <trkpt lat="43.21011" lon="1.87548">
        <ele>365.52</ele>
        <time>2024-08-14T16:19:38.591Z</time>
      </trkpt>
      <trkpt lat="43.21029" lon="1.87531">
        <ele>365.63</ele>
        <time>2024-08-14T16:19:39.418Z</time>
      </trkpt>
      <trkpt lat="43.21067" lon="1.87465">
        <ele>365.61</ele>
        <time>2024-08-14T16:19:40.260Z</time>
      </trkpt>
      <trkpt lat="43.21079" lon="1.87451">
        <ele>366.04</ele>
        <time>2024-08-14T16:19:41.106Z</time>
      </trkpt>
      <trkpt lat="43.21108" lon="1.8743">
        <ele>366.73</ele>
        <time>2024-08-14T16:19:41.960Z</time>
      </trkpt>
      <trkpt lat="43.21189" lon="1.87367">
        <ele>367.79</ele>
        <time>2024-08-14T16:19:42.837Z</time>
      </trkpt>
      <trkpt lat="43.21216" lon="1.87359">
        <ele>368.37</ele>
        <time>2024-08-14T16:19:43.721Z</time>
      </trkpt>
      <trkpt lat="43.21284" lon="1.87343">
        <ele>368.72</ele>
        <time>2024-08-14T16:19:44.622Z</time>
      </trkpt>
      <trkpt lat="43.21328" lon="1.87325">
        <ele>368.47</ele>
        <time>2024-08-14T16:19:45.534Z</time>
      </trkpt>
      <trkpt lat="43.21364" lon="1.87301">
        <ele>367.99</ele>
        <time>2024-08-14T16:19:46.456Z</time>
      </trkpt>
      <trkpt lat="43.21385" lon="1.87293">
        <ele>367.88</ele>
        <time>2024-08-14T16:19:47.383Z</time>
      </trkpt>
      <trkpt lat="43.21429" lon="1.8729">
        <ele>368.01</ele>
        <time>2024-08-14T16:19:48.321Z</time>
      </trkpt>
      <trkpt lat="43.21436" lon="1.87286">
        <ele>368.09</ele>
        <time>2024-08-14T16:19:49.261Z</time>
      </trkpt>
      <trkpt lat="43.21437" lon="1.8729">
        <ele>368.18</ele>
        <time>2024-08-14T16:19:50.202Z</time>
      </trkpt>
      <trkpt lat="43.21436" lon="1.87286">
        <ele>366.77</ele>
        <time>2024-08-14T16:19:51.144Z</time>
      </trkpt>
      <trkpt lat="43.21444" lon="1.87276">
        <ele>365.97</ele>
        <time>2024-08-14T16:19:52.088Z</time>
      </trkpt>
      <trkpt lat="43.21507" lon="1.87254">
        <ele>364.81</ele>
        <time>2024-08-14T16:19:53.048Z</time>
      </trkpt>
      <trkpt lat="43.21503" lon="1.87219">
        <ele>363.71</ele>
        <time>2024-08-14T16:19:54.014Z</time>
      </trkpt>
      <trkpt lat="43.21498" lon="1.87199">
        <ele>362.58</ele>
        <time>2024-08-14T16:19:54.984Z</time>
      </trkpt>
      <trkpt lat="43.21486" lon="1.87163">
        <ele>361.13</ele>
        <time>2024-08-14T16:19:55.961Z</time>
      </trkpt>
      <trkpt lat="43.2148" lon="1.87128">
        <ele>359.55</ele>
        <time>2024-08-14T16:19:56.945Z</time>
      </trkpt>
      <trkpt lat="43.21479" lon="1.87085">
        <ele>357.89</ele>
        <time>2024-08-14T16:19:57.936Z</time>
      </trkpt>
      <trkpt lat="43.21482" lon="1.86986">
        <ele>355.84</ele>
        <time>2024-08-14T16:19:58.945Z</time>
      </trkpt>
      <trkpt lat="43.21472" lon="1.86921">
        <ele>354.51</ele>
        <time>2024-08-14T16:19:59.966Z</time>
      </trkpt>
      <trkpt lat="43.21455" lon="1.86903">
        <ele>353.62</ele>
        <time>2024-08-14T16:20:00.993Z</time>
      </trkpt>
      <trkpt lat="43.21444" lon="1.86888">
        <ele>352.92</ele>
        <time>2024-08-14T16:20:02.023Z</time>
      </trkpt>
      <trkpt lat="43.21442" lon="1.86876">
        <ele>352.34</ele>
        <time>2024-08-14T16:20:03.055Z</time>
      </trkpt>
      <trkpt lat="43.21446" lon="1.86864">
        <ele>351.82</ele>
        <time>2024-08-14T16:20:04.090Z</time>
      </trkpt>
      <trkpt lat="43.21468" lon="1.86824">
        <ele>351.25</ele>
        <time>2024-08-14T16:20:05.134Z</time>
      </trkpt>
      <trkpt lat="43.21475" lon="1.86797">
        <ele>350.67</ele>
        <time>2024-08-14T16:20:06.183Z</time>
      </trkpt>
      <trkpt lat="43.21494" lon="1.86774">
        <ele>350.01</ele>
        <time>2024-08-14T16:20:07.238Z</time>
      </trkpt>
      <trkpt lat="43.21504" lon="1.86748">
        <ele>349.39</ele>
        <time>2024-08-14T16:20:08.298Z</time>
      </trkpt>
      <trkpt lat="43.21509" lon="1.86692">
        <ele>348.89</ele>
        <time>2024-08-14T16:20:09.368Z</time>
      </trkpt>
      <trkpt lat="43.21524" lon="1.86641">
        <ele>348.26</ele>
        <time>2024-08-14T16:20:10.448Z</time>
      </trkpt>
      <trkpt lat="43.21581" lon="1.86474">
        <ele>347.03</ele>
        <time>2024-08-14T16:20:11.562Z</time>
      </trkpt>
      <trkpt lat="43.21607" lon="1.8643">
        <ele>346.13</ele>
        <time>2024-08-14T16:20:12.686Z</time>
      </trkpt>
      <trkpt lat="43.21608" lon="1.86417">
        <ele>345.43</ele>
        <time>2024-08-14T16:20:13.812Z</time>
      </trkpt>
      <trkpt lat="43.21605" lon="1.86408">
        <ele>344.83</ele>
        <time>2024-08-14T16:20:14.940Z</time>
      </trkpt>
      <trkpt lat="43.21591" lon="1.86403">
        <ele>344.43</ele>
        <time>2024-08-14T16:20:16.071Z</time>
      </trkpt>
      <trkpt lat="43.21557" lon="1.86414">
        <ele>344.28</ele>
        <time>2024-08-14T16:20:17.211Z</time>
      </trkpt>
      <trkpt lat="43.21552" lon="1.86406">
        <ele>344.16</ele>
        <time>2024-08-14T16:20:18.353Z</time>
      </trkpt>
      <trkpt lat="43.21552" lon="1.86362">
        <ele>344.01</ele>
        <time>2024-08-14T16:20:19.503Z</time>
      </trkpt>
      <trkpt lat="43.21547" lon="1.8635">
        <ele>344.06</ele>
        <time>2024-08-14T16:20:20.655Z</time>
      </trkpt>
      <trkpt lat="43.21548" lon="1.86329">
        <ele>344.19</ele>
        <time>2024-08-14T16:20:21.811Z</time>
      </trkpt>
      <trkpt lat="43.21555" lon="1.86298">
        <ele>344.39</ele>
        <time>2024-08-14T16:20:22.973Z</time>
      </trkpt>
      <trkpt lat="43.21538" lon="1.86233">
        <ele>345.03</ele>
        <time>2024-08-14T16:20:24.147Z</time>
      </trkpt>
      <trkpt lat="43.21534" lon="1.86177">
        <ele>345.66</ele>
        <time>2024-08-14T16:20:25.331Z</time>
      </trkpt>
      <trkpt lat="43.21537" lon="1.86157">
        <ele>346.1</ele>
        <time>2024-08-14T16:20:26.519Z</time>
      </trkpt>
      <trkpt lat="43.21542" lon="1.86134">
        <ele>346.48</ele>
        <time>2024-08-14T16:20:27.711Z</time>
      </trkpt>
      <trkpt lat="43.21539" lon="1.86107">
        <ele>346.85</ele>
        <time>2024-08-14T16:20:28.908Z</time>
      </trkpt>
      <trkpt lat="43.21531" lon="1.86085">
        <ele>347.15</ele>
        <time>2024-08-14T16:20:30.109Z</time>
      </trkpt>
      <trkpt lat="43.21634" lon="1.85955">
        <ele>346.95</ele>
        <time>2024-08-14T16:20:31.345Z</time>
      </trkpt>
      <trkpt lat="43.21739" lon="1.85815">
        <ele>346.76</ele>
        <time>2024-08-14T16:20:32.617Z</time>
      </trkpt>
      <trkpt lat="43.21753" lon="1.85805">
        <ele>346.78</ele>
        <time>2024-08-14T16:20:33.893Z</time>
      </trkpt>
      <trkpt lat="43.21774" lon="1.85799">
        <ele>346.77</ele>
        <time>2024-08-14T16:20:35.174Z</time>
      </trkpt>
      <trkpt lat="43.21815" lon="1.85796">
        <ele>346.78</ele>
        <time>2024-08-14T16:20:36.465Z</time>
      </trkpt>
      <trkpt lat="43.21828" lon="1.8579">
        <ele>346.65</ele>
        <time>2024-08-14T16:20:37.759Z</time>
      </trkpt>
      <trkpt lat="43.21838" lon="1.85781">
        <ele>346.45</ele>
        <time>2024-08-14T16:20:39.056Z</time>
      </trkpt>
      <trkpt lat="43.21842" lon="1.85769">
        <ele>346.15</ele>
        <time>2024-08-14T16:20:40.356Z</time>
      </trkpt>
      <trkpt lat="43.21842" lon="1.85769">
        <ele>345.74</ele>
        <time>2024-08-14T16:20:41.656Z</time>
      </trkpt>
      <trkpt lat="43.21847" lon="1.85758">
        <ele>345.2</ele>
        <time>2024-08-14T16:20:42.958Z</time>
      </trkpt>
      <trkpt lat="43.21853" lon="1.85705">
        <ele>344.46</ele>
        <time>2024-08-14T16:20:44.270Z</time>
      </trkpt>
      <trkpt lat="43.21859" lon="1.85666">
        <ele>343.61</ele>
        <time>2024-08-14T16:20:45.589Z</time>
      </trkpt>
      <trkpt lat="43.21869" lon="1.85621">
        <ele>342.64</ele>
        <time>2024-08-14T16:20:46.916Z</time>
      </trkpt>
      <trkpt lat="43.21907" lon="1.85564">
        <ele>341.54</ele>
        <time>2024-08-14T16:20:48.257Z</time>
      </trkpt>
      <trkpt lat="43.21954" lon="1.85463">
        <ele>340.2</ele>
        <time>2024-08-14T16:20:49.619Z</time>
      </trkpt>
      <trkpt lat="43.21996" lon="1.85359">
        <ele>338.83</ele>
        <time>2024-08-14T16:20:51.003Z</time>
      </trkpt>
      <trkpt lat="43.22018" lon="1.85275">
        <ele>337.17</ele>
        <time>2024-08-14T16:20:52.403Z</time>
      </trkpt>
      <trkpt lat="43.22043" lon="1.85174">
        <ele>335.66</ele>
        <time>2024-08-14T16:20:53.822Z</time>
      </trkpt>
      <trkpt lat="43.22057" lon="1.85121">
        <ele>333.8</ele>
        <time>2024-08-14T16:20:55.251Z</time>
      </trkpt>
      <trkpt lat="43.22073" lon="1.85071">
        <ele>331.82</ele>
        <time>2024-08-14T16:20:56.690Z</time>
      </trkpt>
      <trkpt lat="43.22077" lon="1.85066">
        <ele>329.89</ele>
        <time>2024-08-14T16:20:58.130Z</time>
      </trkpt>
      <trkpt lat="43.22088" lon="1.85058">
        <ele>327.86</ele>
        <time>2024-08-14T16:20:59.573Z</time>
      </trkpt>
      <trkpt lat="43.22118" lon="1.85049">
        <ele>325.54</ele>
        <time>2024-08-14T16:21:01.024Z</time>
      </trkpt>
      <trkpt lat="43.22124" lon="1.85043">
        <ele>323.42</ele>
        <time>2024-08-14T16:21:02.477Z</time>
      </trkpt>
      <trkpt lat="43.22129" lon="1.85036">
        <ele>321.32</ele>
        <time>2024-08-14T16:21:03.931Z</time>
      </trkpt>
      <trkpt lat="43.2215" lon="1.84972">
        <ele>319.14</ele>
        <time>2024-08-14T16:21:05.398Z</time>
      </trkpt>
      <trkpt lat="43.22166" lon="1.84914">
        <ele>317.06</ele>
        <time>2024-08-14T16:21:06.876Z</time>
      </trkpt>
      <trkpt lat="43.22185" lon="1.84834">
        <ele>314.98</ele>
        <time>2024-08-14T16:21:08.369Z</time>
      </trkpt>
      <trkpt lat="43.22193" lon="1.84804">
        <ele>313.21</ele>
        <time>2024-08-14T16:21:09.868Z</time>
      </trkpt>
      <trkpt lat="43.2222" lon="1.84745">
        <ele>311.32</ele>
        <time>2024-08-14T16:21:11.379Z</time>
      </trkpt>
      <trkpt lat="43.2224" lon="1.84704">
        <ele>310.05</ele>
        <time>2024-08-14T16:21:12.899Z</time>
      </trkpt>
      <trkpt lat="43.22265" lon="1.84678">
        <ele>309.29</ele>
        <time>2024-08-14T16:21:14.427Z</time>
      </trkpt>
      <trkpt lat="43.2229" lon="1.8466">
        <ele>308.86</ele>
        <time>2024-08-14T16:21:15.962Z</time>
      </trkpt>
      <trkpt lat="43.22306" lon="1.84708">
        <ele>308.81</ele>
        <time>2024-08-14T16:21:17.506Z</time>
      </trkpt>
      <trkpt lat="43.22332" lon="1.84771">
        <ele>309.51</ele>
        <time>2024-08-14T16:21:19.063Z</time>
      </trkpt>
      <trkpt lat="43.2235" lon="1.8481">
        <ele>310</ele>
        <time>2024-08-14T16:21:20.628Z</time>
      </trkpt>
      <trkpt lat="43.22367" lon="1.84836">
        <ele>310.57</ele>
        <time>2024-08-14T16:21:22.200Z</time>
      </trkpt>
      <trkpt lat="43.22384" lon="1.84857">
        <ele>311.28</ele>
        <time>2024-08-14T16:21:23.777Z</time>
      </trkpt>
      <trkpt lat="43.224" lon="1.84872">
        <ele>312.15</ele>
        <time>2024-08-14T16:21:25.359Z</time>
      </trkpt>
      <trkpt lat="43.22414" lon="1.84876">
        <ele>313.3</ele>
        <time>2024-08-14T16:21:26.945Z</time>
      </trkpt>
      <trkpt lat="43.22431" lon="1.84875">
        <ele>314.67</ele>
        <time>2024-08-14T16:21:28.535Z</time>
      </trkpt>
      <trkpt lat="43.22467" lon="1.84864">
        <ele>316.35</ele>
        <time>2024-08-14T16:21:30.134Z</time>
      </trkpt>
      <trkpt lat="43.22499" lon="1.84852">
        <ele>317.8</ele>
        <time>2024-08-14T16:21:31.741Z</time>
      </trkpt>
      <trkpt lat="43.22518" lon="1.84844">
        <ele>319.24</ele>
        <time>2024-08-14T16:21:33.353Z</time>
      </trkpt>
      <trkpt lat="43.22576" lon="1.84807">
        <ele>320.82</ele>
        <time>2024-08-14T16:21:34.980Z</time>
      </trkpt>
      <trkpt lat="43.22646" lon="1.84769">
        <ele>322.95</ele>
        <time>2024-08-14T16:21:36.626Z</time>
      </trkpt>
      <trkpt lat="43.22731" lon="1.84783">
        <ele>324.77</ele>
        <time>2024-08-14T16:21:38.293Z</time>
      </trkpt>
      <trkpt lat="43.22763" lon="1.84753">
        <ele>326.65</ele>
        <time>2024-08-14T16:21:39.969Z</time>
      </trkpt>
      <trkpt lat="43.22923" lon="1.84594">
        <ele>329.07</ele>
        <time>2024-08-14T16:21:41.694Z</time>
      </trkpt>
      <trkpt lat="43.22929" lon="1.84592">
        <ele>330.35</ele>
        <time>2024-08-14T16:21:43.421Z</time>
      </trkpt>
      <trkpt lat="43.22932" lon="1.8458">
        <ele>331.46</ele>
        <time>2024-08-14T16:21:45.150Z</time>
      </trkpt>
      <trkpt lat="43.22943" lon="1.84503">
        <ele>332.31</ele>
        <time>2024-08-14T16:21:46.893Z</time>
      </trkpt>
      <trkpt lat="43.22944" lon="1.84476">
        <ele>333.11</ele>
        <time>2024-08-14T16:21:48.641Z</time>
      </trkpt>
      <trkpt lat="43.22944" lon="1.84454">
        <ele>333.58</ele>
        <time>2024-08-14T16:21:50.393Z</time>
      </trkpt>
      <trkpt lat="43.22941" lon="1.8443">
        <ele>333.62</ele>
        <time>2024-08-14T16:21:52.149Z</time>
      </trkpt>
      <trkpt lat="43.22923" lon="1.84318">
        <ele>333.26</ele>
        <time>2024-08-14T16:21:53.926Z</time>
      </trkpt>
      <trkpt lat="43.22919" lon="1.8429">
        <ele>332.96</ele>
        <time>2024-08-14T16:21:55.708Z</time>
      </trkpt>
      <trkpt lat="43.22922" lon="1.84193">
        <ele>332.42</ele>
        <time>2024-08-14T16:21:57.507Z</time>
      </trkpt>
      <trkpt lat="43.22925" lon="1.8417">
        <ele>331.99</ele>
        <time>2024-08-14T16:21:59.310Z</time>
      </trkpt>
      <trkpt lat="43.22948" lon="1.84088">
        <ele>331.53</ele>
        <time>2024-08-14T16:22:01.129Z</time>
      </trkpt>
      <trkpt lat="43.22951" lon="1.84066">
        <ele>330.41</ele>
        <time>2024-08-14T16:22:02.952Z</time>
      </trkpt>
      <trkpt lat="43.22941" lon="1.8389">
        <ele>327.93</ele>
        <time>2024-08-14T16:22:04.807Z</time>
      </trkpt>
      <trkpt lat="43.22926" lon="1.83897">
        <ele>326.84</ele>
        <time>2024-08-14T16:22:06.666Z</time>
      </trkpt>
      <trkpt lat="43.22919" lon="1.83894">
        <ele>325.72</ele>
        <time>2024-08-14T16:22:08.526Z</time>
      </trkpt>
      <trkpt lat="43.22882" lon="1.83895">
        <ele>324.54</ele>
        <time>2024-08-14T16:22:10.395Z</time>
      </trkpt>
      <trkpt lat="43.2282" lon="1.83902">
        <ele>322.92</ele>
        <time>2024-08-14T16:22:12.280Z</time>
      </trkpt>
      <trkpt lat="43.22798" lon="1.839">
        <ele>321.66</ele>
        <time>2024-08-14T16:22:14.170Z</time>
      </trkpt>
      <trkpt lat="43.22797" lon="1.83899">
        <ele>320.77</ele>
        <time>2024-08-14T16:22:16.060Z</time>
      </trkpt>
      <trkpt lat="43.22798" lon="1.83898">
        <ele>320.6</ele>
        <time>2024-08-14T16:22:17.950Z</time>
      </trkpt>
      <trkpt lat="43.22798" lon="1.83898">
        <ele>320.6</ele>
        <time>2024-08-14T16:22:19.840Z</time>
      </trkpt>
      <trkpt lat="43.22798" lon="1.83898">
        <ele>320.6</ele>
        <time>2024-08-14T16:22:21.730Z</time>
      </trkpt>
      <trkpt lat="43.22798" lon="1.83898">
        <ele>320.6</ele>
        <time>2024-08-14T16:22:23.620Z</time>
      </trkpt>
      <trkpt lat="43.22797" lon="1.83899">
        <ele>316.67</ele>
        <time>2024-08-14T16:22:25.511Z</time>
      </trkpt>
      <trkpt lat="43.22789" lon="1.83894">
        <ele>316.59</ele>
        <time>2024-08-14T16:22:27.404Z</time>
      </trkpt>
      <trkpt lat="43.22781" lon="1.83882">
        <ele>316.56</ele>
        <time>2024-08-14T16:22:29.300Z</time>
      </trkpt>
      <trkpt lat="43.22769" lon="1.83827">
        <ele>316.87</ele>
        <time>2024-08-14T16:22:31.206Z</time>
      </trkpt>
      <trkpt lat="43.22762" lon="1.83813">
        <ele>317.26</ele>
        <time>2024-08-14T16:22:33.115Z</time>
      </trkpt>
      <trkpt lat="43.22734" lon="1.83801">
        <ele>317.63</ele>
        <time>2024-08-14T16:22:35.031Z</time>
      </trkpt>
      <trkpt lat="43.22706" lon="1.83797">
        <ele>318.24</ele>
        <time>2024-08-14T16:22:36.954Z</time>
      </trkpt>
      <trkpt lat="43.22695" lon="1.83799">
        <ele>318.9</ele>
        <time>2024-08-14T16:22:38.880Z</time>
      </trkpt>
      <trkpt lat="43.22678" lon="1.8381">
        <ele>319.77</ele>
        <time>2024-08-14T16:22:40.811Z</time>
      </trkpt>
      <trkpt lat="43.22665" lon="1.83814">
        <ele>320.83</ele>
        <time>2024-08-14T16:22:42.745Z</time>
      </trkpt>
      <trkpt lat="43.2265" lon="1.8381">
        <ele>321.87</ele>
        <time>2024-08-14T16:22:44.683Z</time>
      </trkpt>
      <trkpt lat="43.22634" lon="1.83794">
        <ele>322.86</ele>
        <time>2024-08-14T16:22:46.625Z</time>
      </trkpt>
      <trkpt lat="43.22626" lon="1.83766">
        <ele>323.65</ele>
        <time>2024-08-14T16:22:48.573Z</time>
      </trkpt>
      <trkpt lat="43.2262" lon="1.83758">
        <ele>324.44</ele>
        <time>2024-08-14T16:22:50.523Z</time>
      </trkpt>
      <trkpt lat="43.22616" lon="1.83758">
        <ele>325.27</ele>
        <time>2024-08-14T16:22:52.474Z</time>
      </trkpt>
      <trkpt lat="43.22622" lon="1.83726">
        <ele>326.19</ele>
        <time>2024-08-14T16:22:54.431Z</time>
      </trkpt>
      <trkpt lat="43.22622" lon="1.837">
        <ele>327.21</ele>
        <time>2024-08-14T16:22:56.392Z</time>
      </trkpt>
      <trkpt lat="43.22632" lon="1.8364">
        <ele>328.56</ele>
        <time>2024-08-14T16:22:58.364Z</time>
      </trkpt>
      <trkpt lat="43.22634" lon="1.83606">
        <ele>329.78</ele>
        <time>2024-08-14T16:23:00.343Z</time>
      </trkpt>
      <trkpt lat="43.22652" lon="1.83525">
        <ele>331.08</ele>
        <time>2024-08-14T16:23:02.337Z</time>
      </trkpt>
      <trkpt lat="43.22661" lon="1.83495">
        <ele>332.36</ele>
        <time>2024-08-14T16:23:04.337Z</time>
      </trkpt>
      <trkpt lat="43.22674" lon="1.83465">
        <ele>333.48</ele>
        <time>2024-08-14T16:23:06.343Z</time>
      </trkpt>
      <trkpt lat="43.22688" lon="1.8345">
        <ele>334.33</ele>
        <time>2024-08-14T16:23:08.353Z</time>
      </trkpt>
      <trkpt lat="43.22723" lon="1.83382">
        <ele>335.38</ele>
        <time>2024-08-14T16:23:10.378Z</time>
      </trkpt>
      <trkpt lat="43.22726" lon="1.83372">
        <ele>336.11</ele>
        <time>2024-08-14T16:23:12.405Z</time>
      </trkpt>
      <trkpt lat="43.22735" lon="1.83357">
        <ele>336.67</ele>
        <time>2024-08-14T16:23:14.436Z</time>
      </trkpt>
      <trkpt lat="43.22738" lon="1.83342">
        <ele>337.15</ele>
        <time>2024-08-14T16:23:16.469Z</time>
      </trkpt>
      <trkpt lat="43.22742" lon="1.83306">
        <ele>337.31</ele>
        <time>2024-08-14T16:23:18.509Z</time>
      </trkpt>
      <trkpt lat="43.22749" lon="1.83294">
        <ele>337.42</ele>
        <time>2024-08-14T16:23:20.552Z</time>
      </trkpt>
      <trkpt lat="43.22777" lon="1.8327">
        <ele>337.39</ele>
        <time>2024-08-14T16:23:22.603Z</time>
      </trkpt>
      <trkpt lat="43.22798" lon="1.8326">
        <ele>337.31</ele>
        <time>2024-08-14T16:23:24.659Z</time>
      </trkpt>
      <trkpt lat="43.22812" lon="1.83258">
        <ele>337.27</ele>
        <time>2024-08-14T16:23:26.719Z</time>
      </trkpt>
      <trkpt lat="43.22829" lon="1.83258">
        <ele>337.3</ele>
        <time>2024-08-14T16:23:28.783Z</time>
      </trkpt>
      <trkpt lat="43.22881" lon="1.83254">
        <ele>337.67</ele>
        <time>2024-08-14T16:23:30.860Z</time>
      </trkpt>
      <trkpt lat="43.22881" lon="1.83254">
        <ele>337.79</ele>
        <time>2024-08-14T16:23:32.937Z</time>
      </trkpt>
      <trkpt lat="43.22885" lon="1.83253">
        <ele>337.93</ele>
        <time>2024-08-14T16:23:35.015Z</time>
      </trkpt>
      <trkpt lat="43.22921" lon="1.8322">
        <ele>338.1</ele>
        <time>2024-08-14T16:23:37.103Z</time>
      </trkpt>
      <trkpt lat="43.22939" lon="1.83197">
        <ele>338.31</ele>
        <time>2024-08-14T16:23:39.197Z</time>
      </trkpt>
      <trkpt lat="43.22968" lon="1.83154">
        <ele>338.44</ele>
        <time>2024-08-14T16:23:41.302Z</time>
      </trkpt>
      <trkpt lat="43.22974" lon="1.8315">
        <ele>338.58</ele>
        <time>2024-08-14T16:23:43.408Z</time>
      </trkpt>
      <trkpt lat="43.22972" lon="1.8314">
        <ele>338.68</ele>
        <time>2024-08-14T16:23:45.516Z</time>
      </trkpt>
      <trkpt lat="43.23063" lon="1.8297">
        <ele>339.08</ele>
        <time>2024-08-14T16:23:47.662Z</time>
      </trkpt>
      <trkpt lat="43.2309" lon="1.82935">
        <ele>339.21</ele>
        <time>2024-08-14T16:23:49.817Z</time>
      </trkpt>
      <trkpt lat="43.23122" lon="1.82902">
        <ele>339.25</ele>
        <time>2024-08-14T16:23:51.982Z</time>
      </trkpt>
      <trkpt lat="43.23177" lon="1.82839">
        <ele>339.06</ele>
        <time>2024-08-14T16:23:54.165Z</time>
      </trkpt>
      <trkpt lat="43.23238" lon="1.8277">
        <ele>338.94</ele>
        <time>2024-08-14T16:23:56.367Z</time>
      </trkpt>
      <trkpt lat="43.2327" lon="1.82728">
        <ele>338.78</ele>
        <time>2024-08-14T16:23:58.580Z</time>
      </trkpt>
      <trkpt lat="43.23346" lon="1.82588">
        <ele>338.37</ele>
        <time>2024-08-14T16:24:00.824Z</time>
      </trkpt>
      <trkpt lat="43.23374" lon="1.8252">
        <ele>338.14</ele>
        <time>2024-08-14T16:24:03.082Z</time>
      </trkpt>
      <trkpt lat="43.23374" lon="1.8252">
        <ele>337.79</ele>
        <time>2024-08-14T16:24:05.340Z</time>
      </trkpt>
      <trkpt lat="43.23387" lon="1.82471">
        <ele>337.36</ele>
        <time>2024-08-14T16:24:07.608Z</time>
      </trkpt>
      <trkpt lat="43.23398" lon="1.82419">
        <ele>336.89</ele>
        <time>2024-08-14T16:24:09.885Z</time>
      </trkpt>
      <trkpt lat="43.23403" lon="1.82378">
        <ele>336.4</ele>
        <time>2024-08-14T16:24:12.170Z</time>
      </trkpt>
      <trkpt lat="43.23417" lon="1.82329">
        <ele>336.03</ele>
        <time>2024-08-14T16:24:14.464Z</time>
      </trkpt>
      <trkpt lat="43.23426" lon="1.82305">
        <ele>335.52</ele>
        <time>2024-08-14T16:24:16.763Z</time>
      </trkpt>
      <trkpt lat="43.23428" lon="1.82293">
        <ele>335.14</ele>
        <time>2024-08-14T16:24:19.064Z</time>
      </trkpt>
      <trkpt lat="43.2343" lon="1.82251">
        <ele>334.72</ele>
        <time>2024-08-14T16:24:21.373Z</time>
      </trkpt>
      <trkpt lat="43.23429" lon="1.82225">
        <ele>334.47</ele>
        <time>2024-08-14T16:24:23.686Z</time>
      </trkpt>
      <trkpt lat="43.2343" lon="1.82205">
        <ele>334.47</ele>
        <time>2024-08-14T16:24:26.003Z</time>
      </trkpt>
      <trkpt lat="43.23436" lon="1.82167">
        <ele>334.63</ele>
        <time>2024-08-14T16:24:28.327Z</time>
      </trkpt>
      <trkpt lat="43.23455" lon="1.82091">
        <ele>335.08</ele>
        <time>2024-08-14T16:24:30.665Z</time>
      </trkpt>
      <trkpt lat="43.23455" lon="1.82083">
        <ele>335.34</ele>
        <time>2024-08-14T16:24:33.005Z</time>
      </trkpt>
      <trkpt lat="43.23473" lon="1.82028">
        <ele>335.92</ele>
        <time>2024-08-14T16:24:35.356Z</time>
      </trkpt>
      <trkpt lat="43.23488" lon="1.81988">
        <ele>336.35</ele>
        <time>2024-08-14T16:24:37.715Z</time>
      </trkpt>
      <trkpt lat="43.23491" lon="1.81977">
        <ele>336.57</ele>
        <time>2024-08-14T16:24:40.076Z</time>
      </trkpt>
      <trkpt lat="43.23493" lon="1.81943">
        <ele>336.63</ele>
        <time>2024-08-14T16:24:42.443Z</time>
      </trkpt>
      <trkpt lat="43.23517" lon="1.81869">
        <ele>336.62</ele>
        <time>2024-08-14T16:24:44.824Z</time>
      </trkpt>
      <trkpt lat="43.23565" lon="1.81743">
        <ele>336.57</ele>
        <time>2024-08-14T16:24:47.231Z</time>
      </trkpt>
      <trkpt lat="43.23581" lon="1.8167">
        <ele>336.78</ele>
        <time>2024-08-14T16:24:49.652Z</time>
      </trkpt>
      <trkpt lat="43.23616" lon="1.81582">
        <ele>337.04</ele>
        <time>2024-08-14T16:24:52.090Z</time>
      </trkpt>
      <trkpt lat="43.23648" lon="1.81508">
        <ele>337.82</ele>
        <time>2024-08-14T16:24:54.544Z</time>
      </trkpt>
      <trkpt lat="43.23657" lon="1.81476">
        <ele>338.51</ele>
        <time>2024-08-14T16:24:57.004Z</time>
      </trkpt>
      <trkpt lat="43.23684" lon="1.81347">
        <ele>339.3</ele>
        <time>2024-08-14T16:24:59.488Z</time>
      </trkpt>
      <trkpt lat="43.23696" lon="1.81304">
        <ele>340.32</ele>
        <time>2024-08-14T16:25:01.980Z</time>
      </trkpt>
      <trkpt lat="43.23703" lon="1.81263">
        <ele>341.51</ele>
        <time>2024-08-14T16:25:04.480Z</time>
      </trkpt>
      <trkpt lat="43.23727" lon="1.81167">
        <ele>342.93</ele>
        <time>2024-08-14T16:25:06.998Z</time>
      </trkpt>
      <trkpt lat="43.23741" lon="1.8109">
        <ele>344.28</ele>
        <time>2024-08-14T16:25:09.531Z</time>
      </trkpt>
      <trkpt lat="43.23755" lon="1.80978">
        <ele>345.64</ele>
        <time>2024-08-14T16:25:12.084Z</time>
      </trkpt>
      <trkpt lat="43.23761" lon="1.80944">
        <ele>346.16</ele>
        <time>2024-08-14T16:25:14.643Z</time>
      </trkpt>
      <trkpt lat="43.23783" lon="1.80852">
        <ele>346.25</ele>
        <time>2024-08-14T16:25:17.220Z</time>
      </trkpt>
      <trkpt lat="43.23786" lon="1.80824">
        <ele>346.73</ele>
        <time>2024-08-14T16:25:19.802Z</time>
      </trkpt>
      <trkpt lat="43.23784" lon="1.80802">
        <ele>347.11</ele>
        <time>2024-08-14T16:25:22.388Z</time>
      </trkpt>
      <trkpt lat="43.23777" lon="1.80769">
        <ele>347.47</ele>
        <time>2024-08-14T16:25:24.980Z</time>
      </trkpt>
      <trkpt lat="43.23766" lon="1.80726">
        <ele>347.59</ele>
        <time>2024-08-14T16:25:27.580Z</time>
      </trkpt>
      <trkpt lat="43.23766" lon="1.80726">
        <ele>347.73</ele>
        <time>2024-08-14T16:25:30.180Z</time>
      </trkpt>
      <trkpt lat="43.23777" lon="1.80734">
        <ele>347.75</ele>
        <time>2024-08-14T16:25:32.783Z</time>
      </trkpt>
      <trkpt lat="43.23777" lon="1.80734">
        <ele>347.75</ele>
        <time>2024-08-14T16:25:35.386Z</time>
      </trkpt>
      <trkpt lat="43.23777" lon="1.80734">
        <ele>347.75</ele>
        <time>2024-08-14T16:25:37.989Z</time>
      </trkpt>
      <trkpt lat="43.23777" lon="1.80734">
        <ele>347.75</ele>
        <time>2024-08-14T16:25:40.592Z</time>
      </trkpt>
      <trkpt lat="43.23798" lon="1.80748">
        <ele>345.09</ele>
        <time>2024-08-14T16:25:43.201Z</time>
      </trkpt>
      <trkpt lat="43.2381" lon="1.80758">
        <ele>344.19</ele>
        <time>2024-08-14T16:25:45.813Z</time>
      </trkpt>
      <trkpt lat="43.23816" lon="1.80768">
        <ele>343.2</ele>
        <time>2024-08-14T16:25:48.428Z</time>
      </trkpt>
      <trkpt lat="43.23821" lon="1.80781">
        <ele>342.24</ele>
        <time>2024-08-14T16:25:51.045Z</time>
      </trkpt>
      <trkpt lat="43.23823" lon="1.80804">
        <ele>341.54</ele>
        <time>2024-08-14T16:25:53.666Z</time>
      </trkpt>
      <trkpt lat="43.23821" lon="1.80844">
        <ele>341.26</ele>
        <time>2024-08-14T16:25:56.294Z</time>
      </trkpt>
      <trkpt lat="43.23822" lon="1.8087">
        <ele>340.85</ele>
        <time>2024-08-14T16:25:58.927Z</time>
      </trkpt>
      <trkpt lat="43.23826" lon="1.80891">
        <ele>340.25</ele>
        <time>2024-08-14T16:26:01.564Z</time>
      </trkpt>
      <trkpt lat="43.23833" lon="1.80909">
        <ele>339.69</ele>
        <time>2024-08-14T16:26:04.205Z</time>
      </trkpt>
      <trkpt lat="43.23839" lon="1.8092">
        <ele>339.14</ele>
        <time>2024-08-14T16:26:06.848Z</time>
      </trkpt>
      <trkpt lat="43.23844" lon="1.80929">
        <ele>338.54</ele>
        <time>2024-08-14T16:26:09.493Z</time>
      </trkpt>
      <trkpt lat="43.23851" lon="1.80934">
        <ele>337.85</ele>
        <time>2024-08-14T16:26:12.140Z</time>
      </trkpt>
      <trkpt lat="43.2386" lon="1.80983">
        <ele>337.2</ele>
        <time>2024-08-14T16:26:14.796Z</time>
      </trkpt>
      <trkpt lat="43.23864" lon="1.81007">
        <ele>336.23</ele>
        <time>2024-08-14T16:26:17.457Z</time>
      </trkpt>
      <trkpt lat="43.23868" lon="1.81018">
        <ele>335.1</ele>
        <time>2024-08-14T16:26:20.120Z</time>
      </trkpt>
      <trkpt lat="43.23874" lon="1.81028">
        <ele>333.81</ele>
        <time>2024-08-14T16:26:22.785Z</time>
      </trkpt>
      <trkpt lat="43.23884" lon="1.81036">
        <ele>332.37</ele>
        <time>2024-08-14T16:26:25.453Z</time>
      </trkpt>
      <trkpt lat="43.23895" lon="1.81041">
        <ele>330.85</ele>
        <time>2024-08-14T16:26:28.124Z</time>
      </trkpt>
      <trkpt lat="43.23926" lon="1.81035">
        <ele>329.17</ele>
        <time>2024-08-14T16:26:30.802Z</time>
      </trkpt>
      <trkpt lat="43.23963" lon="1.81038">
        <ele>327.23</ele>
        <time>2024-08-14T16:26:33.490Z</time>
      </trkpt>
      <trkpt lat="43.23976" lon="1.81036">
        <ele>325.45</ele>
        <time>2024-08-14T16:26:36.181Z</time>
      </trkpt>
      <trkpt lat="43.24008" lon="1.81022">
        <ele>323.53</ele>
        <time>2024-08-14T16:26:38.880Z</time>
      </trkpt>
      <trkpt lat="43.24025" lon="1.81021">
        <ele>321.54</ele>
        <time>2024-08-14T16:26:41.583Z</time>
      </trkpt>
      <trkpt lat="43.24082" lon="1.81024">
        <ele>319.22</ele>
        <time>2024-08-14T16:26:44.300Z</time>
      </trkpt>
      <trkpt lat="43.24091" lon="1.81029">
        <ele>317.33</ele>
        <time>2024-08-14T16:26:47.019Z</time>
      </trkpt>
      <trkpt lat="43.24098" lon="1.81038">
        <ele>315.3</ele>
        <time>2024-08-14T16:26:49.741Z</time>
      </trkpt>
      <trkpt lat="43.24113" lon="1.81079">
        <ele>312.99</ele>
        <time>2024-08-14T16:26:52.471Z</time>
      </trkpt>
      <trkpt lat="43.24116" lon="1.81098">
        <ele>311.12</ele>
        <time>2024-08-14T16:26:55.205Z</time>
      </trkpt>
      <trkpt lat="43.24116" lon="1.81118">
        <ele>309.29</ele>
        <time>2024-08-14T16:26:57.942Z</time>
      </trkpt>
      <trkpt lat="43.24111" lon="1.8118">
        <ele>307.22</ele>
        <time>2024-08-14T16:27:00.690Z</time>
      </trkpt>
      <trkpt lat="43.24116" lon="1.81195">
        <ele>305.41</ele>
        <time>2024-08-14T16:27:03.441Z</time>
      </trkpt>
      <trkpt lat="43.24126" lon="1.81204">
        <ele>303.71</ele>
        <time>2024-08-14T16:27:06.195Z</time>
      </trkpt>
      <trkpt lat="43.2415" lon="1.81205">
        <ele>301.94</ele>
        <time>2024-08-14T16:27:08.955Z</time>
      </trkpt>
      <trkpt lat="43.24173" lon="1.81198">
        <ele>300.15</ele>
        <time>2024-08-14T16:27:11.721Z</time>
      </trkpt>
      <trkpt lat="43.2419" lon="1.8119">
        <ele>298.44</ele>
        <time>2024-08-14T16:27:14.491Z</time>
      </trkpt>
      <trkpt lat="43.2421" lon="1.81174">
        <ele>296.68</ele>
        <time>2024-08-14T16:27:17.267Z</time>
      </trkpt>
      <trkpt lat="43.2422" lon="1.81163">
        <ele>295.53</ele>
        <time>2024-08-14T16:27:20.046Z</time>
      </trkpt>
      <trkpt lat="43.24221" lon="1.81166">
        <ele>305.37</ele>
        <time>2024-08-14T16:27:22.825Z</time>
      </trkpt>
      <trkpt lat="43.24221" lon="1.81166">
        <ele>305.47</ele>
        <time>2024-08-14T16:27:25.604Z</time>
      </trkpt>
      <trkpt lat="43.24221" lon="1.81166">
        <ele>305.56</ele>
        <time>2024-08-14T16:27:28.383Z</time>
      </trkpt>
      <trkpt lat="43.24221" lon="1.81166">
        <ele>305.6</ele>
        <time>2024-08-14T16:27:31.162Z</time>
      </trkpt>
      <trkpt lat="43.2422" lon="1.81163">
        <ele>295.95</ele>
        <time>2024-08-14T16:27:33.942Z</time>
      </trkpt>
      <trkpt lat="43.24225" lon="1.81157">
        <ele>295.49</ele>
        <time>2024-08-14T16:27:36.724Z</time>
      </trkpt>
      <trkpt lat="43.24237" lon="1.81135">
        <ele>295.09</ele>
        <time>2024-08-14T16:27:39.511Z</time>
      </trkpt>
      <trkpt lat="43.2425" lon="1.81077">
        <ele>294.62</ele>
        <time>2024-08-14T16:27:42.308Z</time>
      </trkpt>
      <trkpt lat="43.24257" lon="1.8106">
        <ele>293.93</ele>
        <time>2024-08-14T16:27:45.109Z</time>
      </trkpt>
      <trkpt lat="43.24267" lon="1.81048">
        <ele>293.08</ele>
        <time>2024-08-14T16:27:47.913Z</time>
      </trkpt>
      <trkpt lat="43.24277" lon="1.81044">
        <ele>292.18</ele>
        <time>2024-08-14T16:27:50.720Z</time>
      </trkpt>
      <trkpt lat="43.24287" lon="1.81045">
        <ele>291.1</ele>
        <time>2024-08-14T16:27:53.529Z</time>
      </trkpt>
      <trkpt lat="43.24322" lon="1.81059">
        <ele>289.78</ele>
        <time>2024-08-14T16:27:56.347Z</time>
      </trkpt>
      <trkpt lat="43.24329" lon="1.81065">
        <ele>288.64</ele>
        <time>2024-08-14T16:27:59.167Z</time>
      </trkpt>
      <trkpt lat="43.24335" lon="1.81074">
        <ele>287.56</ele>
        <time>2024-08-14T16:28:01.989Z</time>
      </trkpt>
      <trkpt lat="43.24339" lon="1.81086">
        <ele>286.44</ele>
        <time>2024-08-14T16:28:04.814Z</time>
      </trkpt>
      <trkpt lat="43.24339" lon="1.81124">
        <ele>285.04</ele>
        <time>2024-08-14T16:28:07.646Z</time>
      </trkpt>
      <trkpt lat="43.24337" lon="1.8115">
        <ele>283.57</ele>
        <time>2024-08-14T16:28:10.482Z</time>
      </trkpt>
      <trkpt lat="43.24324" lon="1.81182">
        <ele>281.99</ele>
        <time>2024-08-14T16:28:13.325Z</time>
      </trkpt>
      <trkpt lat="43.24294" lon="1.81244">
        <ele>280.32</ele>
        <time>2024-08-14T16:28:16.181Z</time>
      </trkpt>
      <trkpt lat="43.24288" lon="1.81257">
        <ele>278.99</ele>
        <time>2024-08-14T16:28:19.040Z</time>
      </trkpt>
      <trkpt lat="43.24284" lon="1.81287">
        <ele>277.75</ele>
        <time>2024-08-14T16:28:21.904Z</time>
      </trkpt>
      <trkpt lat="43.24285" lon="1.81302">
        <ele>276.66</ele>
        <time>2024-08-14T16:28:24.771Z</time>
      </trkpt>
      <trkpt lat="43.24288" lon="1.81318">
        <ele>275.72</ele>
        <time>2024-08-14T16:28:27.641Z</time>
      </trkpt>
      <trkpt lat="43.24296" lon="1.81341">
        <ele>274.86</ele>
        <time>2024-08-14T16:28:30.515Z</time>
      </trkpt>
      <trkpt lat="43.24316" lon="1.81374">
        <ele>274.18</ele>
        <time>2024-08-14T16:28:33.397Z</time>
      </trkpt>
      <trkpt lat="43.24334" lon="1.81411">
        <ele>273.49</ele>
        <time>2024-08-14T16:28:36.287Z</time>
      </trkpt>
      <trkpt lat="43.24347" lon="1.81448">
        <ele>272.68</ele>
        <time>2024-08-14T16:28:39.185Z</time>
      </trkpt>
      <trkpt lat="43.2436" lon="1.81504">
        <ele>271.65</ele>
        <time>2024-08-14T16:28:42.093Z</time>
      </trkpt>
      <trkpt lat="43.24371" lon="1.81533">
        <ele>270.99</ele>
        <time>2024-08-14T16:28:45.007Z</time>
      </trkpt>
      <trkpt lat="43.2438" lon="1.81546">
        <ele>270.48</ele>
        <time>2024-08-14T16:28:47.924Z</time>
      </trkpt>
      <trkpt lat="43.24388" lon="1.81553">
        <ele>270.07</ele>
        <time>2024-08-14T16:28:50.844Z</time>
      </trkpt>
      <trkpt lat="43.24396" lon="1.81557">
        <ele>269.71</ele>
        <time>2024-08-14T16:28:53.765Z</time>
      </trkpt>
      <trkpt lat="43.24409" lon="1.81554">
        <ele>269.37</ele>
        <time>2024-08-14T16:28:56.690Z</time>
      </trkpt>
      <trkpt lat="43.24429" lon="1.81548">
        <ele>269.01</ele>
        <time>2024-08-14T16:28:59.620Z</time>
      </trkpt>
      <trkpt lat="43.24454" lon="1.81552">
        <ele>268.66</ele>
        <time>2024-08-14T16:29:02.556Z</time>
      </trkpt>
      <trkpt lat="43.24497" lon="1.81566">
        <ele>268.36</ele>
        <time>2024-08-14T16:29:05.503Z</time>
      </trkpt>
      <trkpt lat="43.24553" lon="1.81591">
        <ele>267.75</ele>
        <time>2024-08-14T16:29:08.464Z</time>
      </trkpt>
      <trkpt lat="43.2457" lon="1.81609">
        <ele>267.33</ele>
        <time>2024-08-14T16:29:11.430Z</time>
      </trkpt>
      <trkpt lat="43.24577" lon="1.81622">
        <ele>266.93</ele>
        <time>2024-08-14T16:29:14.399Z</time>
      </trkpt>
      <trkpt lat="43.24582" lon="1.81639">
        <ele>266.58</ele>
        <time>2024-08-14T16:29:17.372Z</time>
      </trkpt>
      <trkpt lat="43.24588" lon="1.81681">
        <ele>266.35</ele>
        <time>2024-08-14T16:29:20.352Z</time>
      </trkpt>
      <trkpt lat="43.24592" lon="1.81697">
        <ele>265.89</ele>
        <time>2024-08-14T16:29:23.335Z</time>
      </trkpt>
      <trkpt lat="43.24609" lon="1.81744">
        <ele>265.27</ele>
        <time>2024-08-14T16:29:26.328Z</time>
      </trkpt>
      <trkpt lat="43.24617" lon="1.81775">
        <ele>264.76</ele>
        <time>2024-08-14T16:29:29.327Z</time>
      </trkpt>
      <trkpt lat="43.24622" lon="1.81802">
        <ele>264.16</ele>
        <time>2024-08-14T16:29:32.331Z</time>
      </trkpt>
      <trkpt lat="43.24628" lon="1.81844">
        <ele>263.51</ele>
        <time>2024-08-14T16:29:35.342Z</time>
      </trkpt>
      <trkpt lat="43.24632" lon="1.81914">
        <ele>262.78</ele>
        <time>2024-08-14T16:29:38.366Z</time>
      </trkpt>
      <trkpt lat="43.24635" lon="1.81942">
        <ele>262.1</ele>
        <time>2024-08-14T16:29:41.395Z</time>
      </trkpt>
      <trkpt lat="43.24638" lon="1.81959">
        <ele>261.46</ele>
        <time>2024-08-14T16:29:44.427Z</time>
      </trkpt>
      <trkpt lat="43.24651" lon="1.82003">
        <ele>260.86</ele>
        <time>2024-08-14T16:29:47.468Z</time>
      </trkpt>
      <trkpt lat="43.2466" lon="1.82035">
        <ele>260.3</ele>
        <time>2024-08-14T16:29:50.515Z</time>
      </trkpt>
      <trkpt lat="43.24661" lon="1.82062">
        <ele>259.79</ele>
        <time>2024-08-14T16:29:53.567Z</time>
      </trkpt>
      <trkpt lat="43.2466" lon="1.82094">
        <ele>259.36</ele>
        <time>2024-08-14T16:29:56.624Z</time>
      </trkpt>
      <trkpt lat="43.24661" lon="1.8211">
        <ele>259.03</ele>
        <time>2024-08-14T16:29:59.684Z</time>
      </trkpt>
      <trkpt lat="43.24665" lon="1.82123">
        <ele>258.87</ele>
        <time>2024-08-14T16:30:02.747Z</time>
      </trkpt>
      <trkpt lat="43.2467" lon="1.82137">
        <ele>258.92</ele>
        <time>2024-08-14T16:30:05.813Z</time>
      </trkpt>
      <trkpt lat="43.24681" lon="1.82158">
        <ele>259.17</ele>
        <time>2024-08-14T16:30:08.883Z</time>
      </trkpt>
      <trkpt lat="43.24691" lon="1.82173">
        <ele>259.53</ele>
        <time>2024-08-14T16:30:11.957Z</time>
      </trkpt>
      <trkpt lat="43.2466" lon="1.82196">
        <ele>259.79</ele>
        <time>2024-08-14T16:30:15.040Z</time>
      </trkpt>
      <trkpt lat="43.24636" lon="1.8222">
        <ele>260.32</ele>
        <time>2024-08-14T16:30:18.130Z</time>
      </trkpt>
      <trkpt lat="43.24514" lon="1.82354">
        <ele>260.98</ele>
        <time>2024-08-14T16:30:21.258Z</time>
      </trkpt>
      <trkpt lat="43.2449" lon="1.82378">
        <ele>261.38</ele>
        <time>2024-08-14T16:30:24.394Z</time>
      </trkpt>
      <trkpt lat="43.24454" lon="1.82411">
        <ele>261.92</ele>
        <time>2024-08-14T16:30:27.540Z</time>
      </trkpt>
      <trkpt lat="43.2444" lon="1.82427">
        <ele>262.57</ele>
        <time>2024-08-14T16:30:30.691Z</time>
      </trkpt>
      <trkpt lat="43.24364" lon="1.82566">
        <ele>263.51</ele>
        <time>2024-08-14T16:30:33.873Z</time>
      </trkpt>
      <trkpt lat="43.24364" lon="1.82566">
        <ele>264.21</ele>
        <time>2024-08-14T16:30:37.055Z</time>
      </trkpt>
      <trkpt lat="43.24326" lon="1.82634">
        <ele>265.18</ele>
        <time>2024-08-14T16:30:40.252Z</time>
      </trkpt>
      <trkpt lat="43.24317" lon="1.82642">
        <ele>265.89</ele>
        <time>2024-08-14T16:30:43.452Z</time>
      </trkpt>
      <trkpt lat="43.243" lon="1.82646">
        <ele>266.44</ele>
        <time>2024-08-14T16:30:46.656Z</time>
      </trkpt>
      <trkpt lat="43.24287" lon="1.82642">
        <ele>267.1</ele>
        <time>2024-08-14T16:30:49.863Z</time>
      </trkpt>
      <trkpt lat="43.24263" lon="1.82626">
        <ele>267.84</ele>
        <time>2024-08-14T16:30:53.077Z</time>
      </trkpt>
      <trkpt lat="43.24256" lon="1.82618">
        <ele>268.57</ele>
        <time>2024-08-14T16:30:56.293Z</time>
      </trkpt>
      <trkpt lat="43.2424" lon="1.82585">
        <ele>269.35</ele>
        <time>2024-08-14T16:30:59.516Z</time>
      </trkpt>
      <trkpt lat="43.24233" lon="1.82576">
        <ele>270.08</ele>
        <time>2024-08-14T16:31:02.742Z</time>
      </trkpt>
      <trkpt lat="43.24225" lon="1.8257">
        <ele>270.87</ele>
        <time>2024-08-14T16:31:05.970Z</time>
      </trkpt>
      <trkpt lat="43.24218" lon="1.82568">
        <ele>271.7</ele>
        <time>2024-08-14T16:31:09.200Z</time>
      </trkpt>
      <trkpt lat="43.24209" lon="1.82569">
        <ele>272.58</ele>
        <time>2024-08-14T16:31:12.432Z</time>
      </trkpt>
      <trkpt lat="43.24181" lon="1.8258">
        <ele>273.61</ele>
        <time>2024-08-14T16:31:15.671Z</time>
      </trkpt>
      <trkpt lat="43.24167" lon="1.82588">
        <ele>274.49</ele>
        <time>2024-08-14T16:31:18.913Z</time>
      </trkpt>
      <trkpt lat="43.24155" lon="1.82597">
        <ele>275.4</ele>
        <time>2024-08-14T16:31:22.159Z</time>
      </trkpt>
      <trkpt lat="43.24125" lon="1.82632">
        <ele>276.48</ele>
        <time>2024-08-14T16:31:25.414Z</time>
      </trkpt>
      <trkpt lat="43.24118" lon="1.82637">
        <ele>277.14</ele>
        <time>2024-08-14T16:31:28.672Z</time>
      </trkpt>
      <trkpt lat="43.24111" lon="1.82638">
        <ele>277.73</ele>
        <time>2024-08-14T16:31:31.931Z</time>
      </trkpt>
      <trkpt lat="43.24095" lon="1.82637">
        <ele>278.29</ele>
        <time>2024-08-14T16:31:35.194Z</time>
      </trkpt>
      <trkpt lat="43.24087" lon="1.82629">
        <ele>278.7</ele>
        <time>2024-08-14T16:31:38.460Z</time>
      </trkpt>
      <trkpt lat="43.24069" lon="1.82599">
        <ele>278.92</ele>
        <time>2024-08-14T16:31:41.733Z</time>
      </trkpt>
      <trkpt lat="43.2406" lon="1.82591">
        <ele>279.36</ele>
        <time>2024-08-14T16:31:45.008Z</time>
      </trkpt>
      <trkpt lat="43.24047" lon="1.82589">
        <ele>280</ele>
        <time>2024-08-14T16:31:48.286Z</time>
      </trkpt>
      <trkpt lat="43.24031" lon="1.82589">
        <ele>280.69</ele>
        <time>2024-08-14T16:31:51.568Z</time>
      </trkpt>
      <trkpt lat="43.24026" lon="1.82587">
        <ele>281.01</ele>
        <time>2024-08-14T16:31:54.852Z</time>
      </trkpt>
      <trkpt lat="43.24026" lon="1.82587">
        <ele>281.02</ele>
        <time>2024-08-14T16:31:58.136Z</time>
      </trkpt>
      <trkpt lat="43.24026" lon="1.82587">
        <ele>281.03</ele>
        <time>2024-08-14T16:32:01.420Z</time>
      </trkpt>
      <trkpt lat="43.24026" lon="1.82587">
        <ele>281.04</ele>
        <time>2024-08-14T16:32:04.704Z</time>
      </trkpt>
      <trkpt lat="43.2402" lon="1.82585">
        <ele>279.8</ele>
        <time>2024-08-14T16:32:07.989Z</time>
      </trkpt>
      <trkpt lat="43.23999" lon="1.82552">
        <ele>279.6</ele>
        <time>2024-08-14T16:32:11.282Z</time>
      </trkpt>
      <trkpt lat="43.2399" lon="1.82547">
        <ele>279.74</ele>
        <time>2024-08-14T16:32:14.577Z</time>
      </trkpt>
      <trkpt lat="43.23982" lon="1.82545">
        <ele>280.11</ele>
        <time>2024-08-14T16:32:17.874Z</time>
      </trkpt>
      <trkpt lat="43.23971" lon="1.82546">
        <ele>280.75</ele>
        <time>2024-08-14T16:32:21.174Z</time>
      </trkpt>
      <trkpt lat="43.23959" lon="1.8255">
        <ele>281.57</ele>
        <time>2024-08-14T16:32:24.477Z</time>
      </trkpt>
      <trkpt lat="43.23936" lon="1.82567">
        <ele>282.86</ele>
        <time>2024-08-14T16:32:27.787Z</time>
      </trkpt>
      <trkpt lat="43.23919" lon="1.82582">
        <ele>284.33</ele>
        <time>2024-08-14T16:32:31.101Z</time>
      </trkpt>
      <trkpt lat="43.23911" lon="1.82595">
        <ele>285.67</ele>
        <time>2024-08-14T16:32:34.419Z</time>
      </trkpt>
      <trkpt lat="43.23904" lon="1.82611">
        <ele>286.98</ele>
        <time>2024-08-14T16:32:37.740Z</time>
      </trkpt>
      <trkpt lat="43.23897" lon="1.82655">
        <ele>288.16</ele>
        <time>2024-08-14T16:32:41.069Z</time>
      </trkpt>
      <trkpt lat="43.23886" lon="1.82707">
        <ele>289.19</ele>
        <time>2024-08-14T16:32:44.408Z</time>
      </trkpt>
      <trkpt lat="43.23869" lon="1.82756">
        <ele>290.41</ele>
        <time>2024-08-14T16:32:47.756Z</time>
      </trkpt>
      <trkpt lat="43.23854" lon="1.8279">
        <ele>291.46</ele>
        <time>2024-08-14T16:32:51.112Z</time>
      </trkpt>
      <trkpt lat="43.23839" lon="1.8281">
        <ele>292.28</ele>
        <time>2024-08-14T16:32:54.473Z</time>
      </trkpt>
      <trkpt lat="43.2383" lon="1.82825">
        <ele>293.13</ele>
        <time>2024-08-14T16:32:57.837Z</time>
      </trkpt>
      <trkpt lat="43.23808" lon="1.82883">
        <ele>293.99</ele>
        <time>2024-08-14T16:33:01.213Z</time>
      </trkpt>
      <trkpt lat="43.23779" lon="1.82941">
        <ele>294.9</ele>
        <time>2024-08-14T16:33:04.601Z</time>
      </trkpt>
      <trkpt lat="43.23768" lon="1.82982">
        <ele>295.87</ele>
        <time>2024-08-14T16:33:07.997Z</time>
      </trkpt>
      <trkpt lat="43.23753" lon="1.83018">
        <ele>296.54</ele>
        <time>2024-08-14T16:33:11.401Z</time>
      </trkpt>
      <trkpt lat="43.23743" lon="1.83046">
        <ele>297.21</ele>
        <time>2024-08-14T16:33:14.810Z</time>
      </trkpt>
      <trkpt lat="43.23734" lon="1.8308">
        <ele>297.75</ele>
        <time>2024-08-14T16:33:18.226Z</time>
      </trkpt>
      <trkpt lat="43.23726" lon="1.83102">
        <ele>298.09</ele>
        <time>2024-08-14T16:33:21.646Z</time>
      </trkpt>
      <trkpt lat="43.23726" lon="1.83102">
        <ele>298.45</ele>
        <time>2024-08-14T16:33:25.066Z</time>
      </trkpt>
      <trkpt lat="43.23706" lon="1.83139">
        <ele>299.03</ele>
        <time>2024-08-14T16:33:28.494Z</time>
      </trkpt>
      <trkpt lat="43.23691" lon="1.83156">
        <ele>299.35</ele>
        <time>2024-08-14T16:33:31.927Z</time>
      </trkpt>
      <trkpt lat="43.23671" lon="1.83169">
        <ele>299.61</ele>
        <time>2024-08-14T16:33:35.366Z</time>
      </trkpt>
      <trkpt lat="43.23649" lon="1.83173">
        <ele>299.82</ele>
        <time>2024-08-14T16:33:38.810Z</time>
      </trkpt>
      <trkpt lat="43.23634" lon="1.83182">
        <ele>300.14</ele>
        <time>2024-08-14T16:33:42.258Z</time>
      </trkpt>
      <trkpt lat="43.23622" lon="1.83194">
        <ele>300.6</ele>
        <time>2024-08-14T16:33:45.710Z</time>
      </trkpt>
      <trkpt lat="43.23611" lon="1.83214">
        <ele>301.22</ele>
        <time>2024-08-14T16:33:49.166Z</time>
      </trkpt>
      <trkpt lat="43.23584" lon="1.8328">
        <ele>302.08</ele>
        <time>2024-08-14T16:33:52.636Z</time>
      </trkpt>
      <trkpt lat="43.23573" lon="1.83298">
        <ele>302.75</ele>
        <time>2024-08-14T16:33:56.110Z</time>
      </trkpt>
      <trkpt lat="43.23563" lon="1.83306">
        <ele>303.43</ele>
        <time>2024-08-14T16:33:59.587Z</time>
      </trkpt>
      <trkpt lat="43.2355" lon="1.83315">
        <ele>304.13</ele>
        <time>2024-08-14T16:34:03.067Z</time>
      </trkpt>
      <trkpt lat="43.23529" lon="1.83325">
        <ele>304.84</ele>
        <time>2024-08-14T16:34:06.553Z</time>
      </trkpt>
      <trkpt lat="43.23534" lon="1.8339">
        <ele>306.06</ele>
        <time>2024-08-14T16:34:10.051Z</time>
      </trkpt>
      <trkpt lat="43.23542" lon="1.83436">
        <ele>307.27</ele>
        <time>2024-08-14T16:34:13.557Z</time>
      </trkpt>
      <trkpt lat="43.23548" lon="1.83444">
        <ele>308.13</ele>
        <time>2024-08-14T16:34:17.065Z</time>
      </trkpt>
      <trkpt lat="43.23573" lon="1.83455">
        <ele>309</ele>
        <time>2024-08-14T16:34:20.580Z</time>
      </trkpt>
      <trkpt lat="43.23577" lon="1.8346">
        <ele>309.66</ele>
        <time>2024-08-14T16:34:24.096Z</time>
      </trkpt>
      <trkpt lat="43.23576" lon="1.83471">
        <ele>310.26</ele>
        <time>2024-08-14T16:34:27.614Z</time>
      </trkpt>
      <trkpt lat="43.23565" lon="1.83501">
        <ele>310.87</ele>
        <time>2024-08-14T16:34:31.138Z</time>
      </trkpt>
      <trkpt lat="43.23549" lon="1.83538">
        <ele>311.51</ele>
        <time>2024-08-14T16:34:34.670Z</time>
      </trkpt>
      <trkpt lat="43.23529" lon="1.83573">
        <ele>312.11</ele>
        <time>2024-08-14T16:34:38.210Z</time>
      </trkpt>
      <trkpt lat="43.23476" lon="1.83636">
        <ele>313.07</ele>
        <time>2024-08-14T16:34:41.767Z</time>
      </trkpt>
      <trkpt lat="43.23471" lon="1.83647">
        <ele>313.66</ele>
        <time>2024-08-14T16:34:45.326Z</time>
      </trkpt>
      <trkpt lat="43.23469" lon="1.83654">
        <ele>314.25</ele>
        <time>2024-08-14T16:34:48.887Z</time>
      </trkpt>
      <trkpt lat="43.23469" lon="1.83662">
        <ele>314.85</ele>
        <time>2024-08-14T16:34:52.449Z</time>
      </trkpt>
      <trkpt lat="43.23472" lon="1.8367">
        <ele>315.51</ele>
        <time>2024-08-14T16:34:56.013Z</time>
      </trkpt>
      <trkpt lat="43.23575" lon="1.8377">
        <ele>316.13</ele>
        <time>2024-08-14T16:34:59.608Z</time>
      </trkpt>
      <trkpt lat="43.23489" lon="1.83854">
        <ele>317.64</ele>
        <time>2024-08-14T16:35:03.229Z</time>
      </trkpt>
      <trkpt lat="43.23472" lon="1.83875">
        <ele>318.79</ele>
        <time>2024-08-14T16:35:06.855Z</time>
      </trkpt>
      <trkpt lat="43.23454" lon="1.83904">
        <ele>320.21</ele>
        <time>2024-08-14T16:35:10.488Z</time>
      </trkpt>
      <trkpt lat="43.23417" lon="1.83982">
        <ele>321.94</ele>
        <time>2024-08-14T16:35:14.138Z</time>
      </trkpt>
      <trkpt lat="43.23399" lon="1.84008">
        <ele>323.43</ele>
        <time>2024-08-14T16:35:17.794Z</time>
      </trkpt>
      <trkpt lat="43.23375" lon="1.84027">
        <ele>325.04</ele>
        <time>2024-08-14T16:35:21.457Z</time>
      </trkpt>
      <trkpt lat="43.23343" lon="1.84045">
        <ele>326.93</ele>
        <time>2024-08-14T16:35:25.128Z</time>
      </trkpt>
      <trkpt lat="43.23281" lon="1.84076">
        <ele>329.04</ele>
        <time>2024-08-14T16:35:28.816Z</time>
      </trkpt>
      <trkpt lat="43.23268" lon="1.84079">
        <ele>331</ele>
        <time>2024-08-14T16:35:32.507Z</time>
      </trkpt>
      <trkpt lat="43.23263" lon="1.84089">
        <ele>332.93</ele>
        <time>2024-08-14T16:35:36.200Z</time>
      </trkpt>
      <trkpt lat="43.23172" lon="1.84171">
        <ele>335.44</ele>
        <time>2024-08-14T16:35:39.920Z</time>
      </trkpt>
      <trkpt lat="43.2315" lon="1.84195">
        <ele>336.88</ele>
        <time>2024-08-14T16:35:43.647Z</time>
      </trkpt>
      <trkpt lat="43.23129" lon="1.84223">
        <ele>338</ele>
        <time>2024-08-14T16:35:47.381Z</time>
      </trkpt>
      <trkpt lat="43.23107" lon="1.8427">
        <ele>338.57</ele>
        <time>2024-08-14T16:35:51.125Z</time>
      </trkpt>
      <trkpt lat="43.23077" lon="1.84304">
        <ele>338.54</ele>
        <time>2024-08-14T16:35:54.879Z</time>
      </trkpt>
      <trkpt lat="43.23019" lon="1.84353">
        <ele>337.76</ele>
        <time>2024-08-14T16:35:58.649Z</time>
      </trkpt>
      <trkpt lat="43.22978" lon="1.84419">
        <ele>337.87</ele>
        <time>2024-08-14T16:36:02.435Z</time>
      </trkpt>
      <trkpt lat="43.22962" lon="1.84474">
        <ele>337.62</ele>
        <time>2024-08-14T16:36:06.231Z</time>
      </trkpt>
      <trkpt lat="43.2294" lon="1.84572">
        <ele>337.19</ele>
        <time>2024-08-14T16:36:10.046Z</time>
      </trkpt>
      <trkpt lat="43.22942" lon="1.84572">
        <ele>337.94</ele>
        <time>2024-08-14T16:36:13.861Z</time>
      </trkpt>
      <trkpt lat="43.22942" lon="1.84572">
        <ele>337.96</ele>
        <time>2024-08-14T16:36:17.676Z</time>
      </trkpt>
      <trkpt lat="43.22942" lon="1.84572">
        <ele>337.98</ele>
        <time>2024-08-14T16:36:21.491Z</time>
      </trkpt>
      <trkpt lat="43.22942" lon="1.84572">
        <ele>338</ele>
        <time>2024-08-14T16:36:25.306Z</time>
      </trkpt>
      <trkpt lat="43.22939" lon="1.84578">
        <ele>337.8</ele>
        <time>2024-08-14T16:36:29.122Z</time>
      </trkpt>
      <trkpt lat="43.22936" lon="1.84583">
        <ele>337.6</ele>
        <time>2024-08-14T16:36:32.940Z</time>
      </trkpt>
      <trkpt lat="43.22931" lon="1.84593">
        <ele>336.8</ele>
        <time>2024-08-14T16:36:36.760Z</time>
      </trkpt>
      <trkpt lat="43.22928" lon="1.84596">
        <ele>335.8</ele>
        <time>2024-08-14T16:36:40.581Z</time>
      </trkpt>
      <trkpt lat="43.22922" lon="1.84598">
        <ele>335.6</ele>
        <time>2024-08-14T16:36:44.403Z</time>
      </trkpt>
      <trkpt lat="43.22907" lon="1.84612">
        <ele>335.2</ele>
        <time>2024-08-14T16:36:48.230Z</time>
      </trkpt>
      <trkpt lat="43.22898" lon="1.84621">
        <ele>334.8</ele>
        <time>2024-08-14T16:36:52.059Z</time>
      </trkpt>
      <trkpt lat="43.22882" lon="1.84638">
        <ele>334</ele>
        <time>2024-08-14T16:36:55.893Z</time>
      </trkpt>
      <trkpt lat="43.22876" lon="1.84644">
        <ele>333.8</ele>
        <time>2024-08-14T16:36:59.729Z</time>
      </trkpt>
      <trkpt lat="43.22864" lon="1.84656">
        <ele>332.6</ele>
        <time>2024-08-14T16:37:03.569Z</time>
      </trkpt>
      <trkpt lat="43.22844" lon="1.84675">
        <ele>331.4</ele>
        <time>2024-08-14T16:37:07.415Z</time>
      </trkpt>
      <trkpt lat="43.22817" lon="1.84702">
        <ele>330.2</ele>
        <time>2024-08-14T16:37:11.269Z</time>
      </trkpt>
      <trkpt lat="43.22803" lon="1.84716">
        <ele>329</ele>
        <time>2024-08-14T16:37:15.127Z</time>
      </trkpt>
      <trkpt lat="43.22796" lon="1.84723">
        <ele>328</ele>
        <time>2024-08-14T16:37:18.987Z</time>
      </trkpt>
      <trkpt lat="43.22788" lon="1.8473">
        <ele>327.6</ele>
        <time>2024-08-14T16:37:22.850Z</time>
      </trkpt>
      <trkpt lat="43.22766" lon="1.84751">
        <ele>327</ele>
        <time>2024-08-14T16:37:26.719Z</time>
      </trkpt>
      <trkpt lat="43.22736" lon="1.84778">
        <ele>326.2</ele>
        <time>2024-08-14T16:37:30.597Z</time>
      </trkpt>
      <trkpt lat="43.22729" lon="1.84782">
        <ele>325.6</ele>
        <time>2024-08-14T16:37:34.477Z</time>
      </trkpt>
      <trkpt lat="43.22721" lon="1.84784">
        <ele>325.2</ele>
        <time>2024-08-14T16:37:38.359Z</time>
      </trkpt>
      <trkpt lat="43.22714" lon="1.84783">
        <ele>324.2</ele>
        <time>2024-08-14T16:37:42.243Z</time>
      </trkpt>
      <trkpt lat="43.22706" lon="1.84781">
        <ele>323.4</ele>
        <time>2024-08-14T16:37:46.129Z</time>
      </trkpt>
      <trkpt lat="43.22698" lon="1.84779">
        <ele>322.4</ele>
        <time>2024-08-14T16:37:50.017Z</time>
      </trkpt>
      <trkpt lat="43.22682" lon="1.84776">
        <ele>320.8</ele>
        <time>2024-08-14T16:37:53.908Z</time>
      </trkpt>
      <trkpt lat="43.2266" lon="1.84771">
        <ele>319.8</ele>
        <time>2024-08-14T16:37:57.805Z</time>
      </trkpt>
      <trkpt lat="43.22646" lon="1.8477">
        <ele>319.6</ele>
        <time>2024-08-14T16:38:01.705Z</time>
      </trkpt>
      <trkpt lat="43.22618" lon="1.8478">
        <ele>318.2</ele>
        <time>2024-08-14T16:38:05.613Z</time>
      </trkpt>
      <trkpt lat="43.22576" lon="1.84803">
        <ele>316.8</ele>
        <time>2024-08-14T16:38:09.532Z</time>
      </trkpt>
      <trkpt lat="43.22544" lon="1.84823">
        <ele>315.6</ele>
        <time>2024-08-14T16:38:13.459Z</time>
      </trkpt>
      <trkpt lat="43.22511" lon="1.84847">
        <ele>314.6</ele>
        <time>2024-08-14T16:38:17.395Z</time>
      </trkpt>
      <trkpt lat="43.22498" lon="1.84854">
        <ele>314</ele>
        <time>2024-08-14T16:38:21.335Z</time>
      </trkpt>
      <trkpt lat="43.22469" lon="1.84865">
        <ele>313.6</ele>
        <time>2024-08-14T16:38:25.282Z</time>
      </trkpt>
      <trkpt lat="43.22461" lon="1.84866">
        <ele>313.4</ele>
        <time>2024-08-14T16:38:29.231Z</time>
      </trkpt>
      <trkpt lat="43.22452" lon="1.84868">
        <ele>313</ele>
        <time>2024-08-14T16:38:33.182Z</time>
      </trkpt>
      <trkpt lat="43.22437" lon="1.84868">
        <ele>312.6</ele>
        <time>2024-08-14T16:38:37.137Z</time>
      </trkpt>
      <trkpt lat="43.22426" lon="1.8487">
        <ele>312.2</ele>
        <time>2024-08-14T16:38:41.095Z</time>
      </trkpt>
      <trkpt lat="43.22421" lon="1.84872">
        <ele>312</ele>
        <time>2024-08-14T16:38:45.054Z</time>
      </trkpt>
      <trkpt lat="43.2241" lon="1.84874">
        <ele>311.4</ele>
        <time>2024-08-14T16:38:49.016Z</time>
      </trkpt>
      <trkpt lat="43.22403" lon="1.84873">
        <ele>311.2</ele>
        <time>2024-08-14T16:38:52.980Z</time>
      </trkpt>
      <trkpt lat="43.22397" lon="1.8487">
        <ele>311</ele>
        <time>2024-08-14T16:38:56.945Z</time>
      </trkpt>
      <trkpt lat="43.22391" lon="1.84866">
        <ele>311</ele>
        <time>2024-08-14T16:39:00.912Z</time>
      </trkpt>
      <trkpt lat="43.22385" lon="1.8486">
        <ele>311</ele>
        <time>2024-08-14T16:39:04.881Z</time>
      </trkpt>
      <trkpt lat="43.22368" lon="1.84834">
        <ele>310.4</ele>
        <time>2024-08-14T16:39:08.856Z</time>
      </trkpt>
      <trkpt lat="43.22363" lon="1.84828">
        <ele>310</ele>
        <time>2024-08-14T16:39:12.832Z</time>
      </trkpt>
      <trkpt lat="43.22338" lon="1.84786">
        <ele>309</ele>
        <time>2024-08-14T16:39:16.818Z</time>
      </trkpt>
      <trkpt lat="43.22325" lon="1.84753">
        <ele>308</ele>
        <time>2024-08-14T16:39:20.811Z</time>
      </trkpt>
      <trkpt lat="43.22322" lon="1.84747">
        <ele>308</ele>
        <time>2024-08-14T16:39:24.805Z</time>
      </trkpt>
      <trkpt lat="43.22313" lon="1.84719">
        <ele>306.8</ele>
        <time>2024-08-14T16:39:28.805Z</time>
      </trkpt>
      <trkpt lat="43.2231" lon="1.84713">
        <ele>306.6</ele>
        <time>2024-08-14T16:39:32.806Z</time>
      </trkpt>
      <trkpt lat="43.22307" lon="1.84702">
        <ele>306.4</ele>
        <time>2024-08-14T16:39:36.809Z</time>
      </trkpt>
      <trkpt lat="43.22302" lon="1.84687">
        <ele>306</ele>
        <time>2024-08-14T16:39:40.815Z</time>
      </trkpt>
      <trkpt lat="43.22299" lon="1.84677">
        <ele>305.8</ele>
        <time>2024-08-14T16:39:44.823Z</time>
      </trkpt>
      <trkpt lat="43.22297" lon="1.84672">
        <ele>305.6</ele>
        <time>2024-08-14T16:39:48.832Z</time>
      </trkpt>
      <trkpt lat="43.22294" lon="1.84667">
        <ele>305.6</ele>
        <time>2024-08-14T16:39:52.842Z</time>
      </trkpt>
      <trkpt lat="43.22289" lon="1.84665">
        <ele>305.2</ele>
        <time>2024-08-14T16:39:56.853Z</time>
      </trkpt>
      <trkpt lat="43.22276" lon="1.84672">
        <ele>304.8</ele>
        <time>2024-08-14T16:40:00.868Z</time>
      </trkpt>
      <trkpt lat="43.22271" lon="1.84677">
        <ele>304.8</ele>
        <time>2024-08-14T16:40:04.884Z</time>
      </trkpt>
      <trkpt lat="43.22264" lon="1.84682">
        <ele>304.8</ele>
        <time>2024-08-14T16:40:08.902Z</time>
      </trkpt>
      <trkpt lat="43.22249" lon="1.847">
        <ele>305</ele>
        <time>2024-08-14T16:40:12.925Z</time>
      </trkpt>
      <trkpt lat="43.22238" lon="1.84717">
        <ele>305.8</ele>
        <time>2024-08-14T16:40:16.952Z</time>
      </trkpt>
      <trkpt lat="43.22233" lon="1.84725">
        <ele>306.2</ele>
        <time>2024-08-14T16:40:20.981Z</time>
      </trkpt>
      <trkpt lat="43.22229" lon="1.84734">
        <ele>307</ele>
        <time>2024-08-14T16:40:25.012Z</time>
      </trkpt>
      <trkpt lat="43.22219" lon="1.84753">
        <ele>308.2</ele>
        <time>2024-08-14T16:40:29.047Z</time>
      </trkpt>
      <trkpt lat="43.22214" lon="1.84763">
        <ele>308.8</ele>
        <time>2024-08-14T16:40:33.084Z</time>
      </trkpt>
      <trkpt lat="43.22211" lon="1.84768">
        <ele>309.2</ele>
        <time>2024-08-14T16:40:37.122Z</time>
      </trkpt>
      <trkpt lat="43.22209" lon="1.84773">
        <ele>309.4</ele>
        <time>2024-08-14T16:40:41.162Z</time>
      </trkpt>
      <trkpt lat="43.22202" lon="1.84788">
        <ele>310.4</ele>
        <time>2024-08-14T16:40:45.205Z</time>
      </trkpt>
      <trkpt lat="43.22199" lon="1.84793">
        <ele>310.8</ele>
        <time>2024-08-14T16:40:49.249Z</time>
      </trkpt>
      <trkpt lat="43.22195" lon="1.84803">
        <ele>311.4</ele>
        <time>2024-08-14T16:40:53.295Z</time>
      </trkpt>
      <trkpt lat="43.22189" lon="1.84819">
        <ele>312.6</ele>
        <time>2024-08-14T16:40:57.344Z</time>
      </trkpt>
      <trkpt lat="43.22186" lon="1.8483">
        <ele>314</ele>
        <time>2024-08-14T16:41:01.395Z</time>
      </trkpt>
      <trkpt lat="43.22184" lon="1.84836">
        <ele>314.6</ele>
        <time>2024-08-14T16:41:05.447Z</time>
      </trkpt>
      <trkpt lat="43.22182" lon="1.84847">
        <ele>315.4</ele>
        <time>2024-08-14T16:41:09.502Z</time>
      </trkpt>
      <trkpt lat="43.22178" lon="1.84869">
        <ele>317</ele>
        <time>2024-08-14T16:41:13.561Z</time>
      </trkpt>
      <trkpt lat="43.22173" lon="1.84887">
        <ele>318</ele>
        <time>2024-08-14T16:41:17.623Z</time>
      </trkpt>
      <trkpt lat="43.22172" lon="1.84891">
        <ele>318.4</ele>
        <time>2024-08-14T16:41:21.686Z</time>
      </trkpt>
      <trkpt lat="43.22168" lon="1.84908">
        <ele>319.8</ele>
        <time>2024-08-14T16:41:25.752Z</time>
      </trkpt>
      <trkpt lat="43.22164" lon="1.84924">
        <ele>320.8</ele>
        <time>2024-08-14T16:41:29.821Z</time>
      </trkpt>
      <trkpt lat="43.22162" lon="1.84931">
        <ele>321.2</ele>
        <time>2024-08-14T16:41:33.891Z</time>
      </trkpt>
      <trkpt lat="43.22158" lon="1.84946">
        <ele>322.4</ele>
        <time>2024-08-14T16:41:37.964Z</time>
      </trkpt>
      <trkpt lat="43.22154" lon="1.84965">
        <ele>323.6</ele>
        <time>2024-08-14T16:41:42.041Z</time>
      </trkpt>
      <trkpt lat="43.22148" lon="1.8498">
        <ele>324.8</ele>
        <time>2024-08-14T16:41:46.121Z</time>
      </trkpt>
      <trkpt lat="43.22146" lon="1.84987">
        <ele>325</ele>
        <time>2024-08-14T16:41:50.202Z</time>
      </trkpt>
      <trkpt lat="43.22142" lon="1.85003">
        <ele>325.8</ele>
        <time>2024-08-14T16:41:54.286Z</time>
      </trkpt>
      <trkpt lat="43.2214" lon="1.85009">
        <ele>326.2</ele>
        <time>2024-08-14T16:41:58.371Z</time>
      </trkpt>
      <trkpt lat="43.22134" lon="1.85024">
        <ele>326.8</ele>
        <time>2024-08-14T16:42:02.459Z</time>
      </trkpt>
      <trkpt lat="43.22132" lon="1.85029">
        <ele>327.2</ele>
        <time>2024-08-14T16:42:06.548Z</time>
      </trkpt>
      <trkpt lat="43.22128" lon="1.85038">
        <ele>328</ele>
        <time>2024-08-14T16:42:10.639Z</time>
      </trkpt>
      <trkpt lat="43.22122" lon="1.85047">
        <ele>328.4</ele>
        <time>2024-08-14T16:42:14.732Z</time>
      </trkpt>
      <trkpt lat="43.22119" lon="1.8505">
        <ele>328.4</ele>
        <time>2024-08-14T16:42:18.826Z</time>
      </trkpt>
      <trkpt lat="43.22112" lon="1.85056">
        <ele>328.8</ele>
        <time>2024-08-14T16:42:22.922Z</time>
      </trkpt>
      <trkpt lat="43.22106" lon="1.85059">
        <ele>329.6</ele>
        <time>2024-08-14T16:42:27.020Z</time>
      </trkpt>
      <trkpt lat="43.22102" lon="1.8506">
        <ele>329.6</ele>
        <time>2024-08-14T16:42:31.119Z</time>
      </trkpt>
      <trkpt lat="43.22098" lon="1.85061">
        <ele>330.2</ele>
        <time>2024-08-14T16:42:35.219Z</time>
      </trkpt>
      <trkpt lat="43.22092" lon="1.85062">
        <ele>331.2</ele>
        <time>2024-08-14T16:42:39.321Z</time>
      </trkpt>
      <trkpt lat="43.22079" lon="1.85069">
        <ele>332.4</ele>
        <time>2024-08-14T16:42:43.426Z</time>
      </trkpt>
      <trkpt lat="43.22076" lon="1.85072">
        <ele>332.6</ele>
        <time>2024-08-14T16:42:47.532Z</time>
      </trkpt>
      <trkpt lat="43.22072" lon="1.85081">
        <ele>333.6</ele>
        <time>2024-08-14T16:42:51.640Z</time>
      </trkpt>
      <trkpt lat="43.22063" lon="1.85108">
        <ele>334.8</ele>
        <time>2024-08-14T16:42:55.753Z</time>
      </trkpt>
      <trkpt lat="43.22061" lon="1.85112">
        <ele>335</ele>
        <time>2024-08-14T16:42:59.867Z</time>
      </trkpt>
      <trkpt lat="43.22051" lon="1.85147">
        <ele>336</ele>
        <time>2024-08-14T16:43:03.988Z</time>
      </trkpt>
      <trkpt lat="43.22049" lon="1.85157">
        <ele>336.2</ele>
        <time>2024-08-14T16:43:08.111Z</time>
      </trkpt>
      <trkpt lat="43.2204" lon="1.85189">
        <ele>337</ele>
        <time>2024-08-14T16:43:12.240Z</time>
      </trkpt>
      <trkpt lat="43.22037" lon="1.85201">
        <ele>337.2</ele>
        <time>2024-08-14T16:43:16.371Z</time>
      </trkpt>
      <trkpt lat="43.22028" lon="1.85234">
        <ele>337.6</ele>
        <time>2024-08-14T16:43:20.508Z</time>
      </trkpt>
      <trkpt lat="43.22025" lon="1.85246">
        <ele>338</ele>
        <time>2024-08-14T16:43:24.648Z</time>
      </trkpt>
      <trkpt lat="43.22014" lon="1.85293">
        <ele>338.2</ele>
        <time>2024-08-14T16:43:28.796Z</time>
      </trkpt>
      <trkpt lat="43.21999" lon="1.85345">
        <ele>338.4</ele>
        <time>2024-08-14T16:43:32.955Z</time>
      </trkpt>
      <trkpt lat="43.21982" lon="1.85393">
        <ele>339</ele>
        <time>2024-08-14T16:43:37.123Z</time>
      </trkpt>
      <trkpt lat="43.21965" lon="1.85435">
        <ele>339.8</ele>
        <time>2024-08-14T16:43:41.300Z</time>
      </trkpt>
      <trkpt lat="43.21949" lon="1.85477">
        <ele>339.8</ele>
        <time>2024-08-14T16:43:45.485Z</time>
      </trkpt>
      <trkpt lat="43.21944" lon="1.85486">
        <ele>340</ele>
        <time>2024-08-14T16:43:49.672Z</time>
      </trkpt>
      <trkpt lat="43.21937" lon="1.85502">
        <ele>340</ele>
        <time>2024-08-14T16:43:53.862Z</time>
      </trkpt>
      <trkpt lat="43.2192" lon="1.85538">
        <ele>340.4</ele>
        <time>2024-08-14T16:43:58.060Z</time>
      </trkpt>
      <trkpt lat="43.21903" lon="1.85571">
        <ele>341</ele>
        <time>2024-08-14T16:44:02.265Z</time>
      </trkpt>
      <trkpt lat="43.21873" lon="1.85617">
        <ele>341.2</ele>
        <time>2024-08-14T16:44:06.481Z</time>
      </trkpt>
      <trkpt lat="43.21868" lon="1.85627">
        <ele>341.2</ele>
        <time>2024-08-14T16:44:10.700Z</time>
      </trkpt>
      <trkpt lat="43.21863" lon="1.85649">
        <ele>341.6</ele>
        <time>2024-08-14T16:44:14.923Z</time>
      </trkpt>
      <trkpt lat="43.21857" lon="1.85679">
        <ele>342.2</ele>
        <time>2024-08-14T16:44:19.151Z</time>
      </trkpt>
      <trkpt lat="43.21854" lon="1.85706">
        <ele>342.8</ele>
        <time>2024-08-14T16:44:23.384Z</time>
      </trkpt>
      <trkpt lat="43.21851" lon="1.85721">
        <ele>343.2</ele>
        <time>2024-08-14T16:44:27.620Z</time>
      </trkpt>
      <trkpt lat="43.21849" lon="1.8574">
        <ele>343.6</ele>
        <time>2024-08-14T16:44:31.859Z</time>
      </trkpt>
      <trkpt lat="43.21846" lon="1.85772">
        <ele>343.8</ele>
        <time>2024-08-14T16:44:36.104Z</time>
      </trkpt>
      <trkpt lat="43.21832" lon="1.85789">
        <ele>343.8</ele>
        <time>2024-08-14T16:44:40.354Z</time>
      </trkpt>
      <trkpt lat="43.21812" lon="1.85795">
        <ele>343.8</ele>
        <time>2024-08-14T16:44:44.609Z</time>
      </trkpt>
      <trkpt lat="43.21781" lon="1.85796">
        <ele>343.4</ele>
        <time>2024-08-14T16:44:48.871Z</time>
      </trkpt>
      <trkpt lat="43.2177" lon="1.85798">
        <ele>343.2</ele>
        <time>2024-08-14T16:44:53.136Z</time>
      </trkpt>
      <trkpt lat="43.21752" lon="1.85805">
        <ele>342.4</ele>
        <time>2024-08-14T16:44:57.406Z</time>
      </trkpt>
      <trkpt lat="43.21744" lon="1.8581">
        <ele>341.8</ele>
        <time>2024-08-14T16:45:01.678Z</time>
      </trkpt>
      <trkpt lat="43.21737" lon="1.85818">
        <ele>341.6</ele>
        <time>2024-08-14T16:45:05.952Z</time>
      </trkpt>
      <trkpt lat="43.21724" lon="1.85835">
        <ele>341.6</ele>
        <time>2024-08-14T16:45:10.231Z</time>
      </trkpt>
      <trkpt lat="43.21715" lon="1.85847">
        <ele>342</ele>
        <time>2024-08-14T16:45:14.513Z</time>
      </trkpt>
      <trkpt lat="43.2169" lon="1.85881">
        <ele>342.4</ele>
        <time>2024-08-14T16:45:18.803Z</time>
      </trkpt>
      <trkpt lat="43.21666" lon="1.85914">
        <ele>342.8</ele>
        <time>2024-08-14T16:45:23.102Z</time>
      </trkpt>
      <trkpt lat="43.21663" lon="1.85918">
        <ele>342.8</ele>
        <time>2024-08-14T16:45:27.402Z</time>
      </trkpt>
      <trkpt lat="43.21646" lon="1.85942">
        <ele>343.8</ele>
        <time>2024-08-14T16:45:31.708Z</time>
      </trkpt>
      <trkpt lat="43.21644" lon="1.85945">
        <ele>344</ele>
        <time>2024-08-14T16:45:36.014Z</time>
      </trkpt>
      <trkpt lat="43.21629" lon="1.85964">
        <ele>345</ele>
        <time>2024-08-14T16:45:40.325Z</time>
      </trkpt>
      <trkpt lat="43.21608" lon="1.8599">
        <ele>346.2</ele>
        <time>2024-08-14T16:45:44.643Z</time>
      </trkpt>
      <trkpt lat="43.21586" lon="1.86016">
        <ele>346.6</ele>
        <time>2024-08-14T16:45:48.969Z</time>
      </trkpt>
      <trkpt lat="43.21577" lon="1.86028">
        <ele>347.2</ele>
        <time>2024-08-14T16:45:53.297Z</time>
      </trkpt>
      <trkpt lat="43.21573" lon="1.86034">
        <ele>347.6</ele>
        <time>2024-08-14T16:45:57.627Z</time>
      </trkpt>
      <trkpt lat="43.2157" lon="1.86035">
        <ele>347.8</ele>
        <time>2024-08-14T16:46:01.958Z</time>
      </trkpt>
      <trkpt lat="43.21567" lon="1.86039">
        <ele>347.8</ele>
        <time>2024-08-14T16:46:06.290Z</time>
      </trkpt>
      <trkpt lat="43.21558" lon="1.86051">
        <ele>348</ele>
        <time>2024-08-14T16:46:10.625Z</time>
      </trkpt>
      <trkpt lat="43.21543" lon="1.8607">
        <ele>348</ele>
        <time>2024-08-14T16:46:14.965Z</time>
      </trkpt>
      <trkpt lat="43.21533" lon="1.86085">
        <ele>348.4</ele>
        <time>2024-08-14T16:46:19.308Z</time>
      </trkpt>
      <trkpt lat="43.21532" lon="1.86087">
        <ele>348.4</ele>
        <time>2024-08-14T16:46:23.652Z</time>
      </trkpt>
      <trkpt lat="43.21531" lon="1.86089">
        <ele>348.6</ele>
        <time>2024-08-14T16:46:27.996Z</time>
      </trkpt>
      <trkpt lat="43.21533" lon="1.86091">
        <ele>348.8</ele>
        <time>2024-08-14T16:46:32.341Z</time>
      </trkpt>
      <trkpt lat="43.21537" lon="1.86096">
        <ele>349.2</ele>
        <time>2024-08-14T16:46:36.687Z</time>
      </trkpt>
      <trkpt lat="43.2154" lon="1.86104">
        <ele>348.4</ele>
        <time>2024-08-14T16:46:41.035Z</time>
      </trkpt>
      <trkpt lat="43.2154" lon="1.86124">
        <ele>348.2</ele>
        <time>2024-08-14T16:46:45.386Z</time>
      </trkpt>
      <trkpt lat="43.21538" lon="1.86151">
        <ele>347.2</ele>
        <time>2024-08-14T16:46:49.742Z</time>
      </trkpt>
      <trkpt lat="43.21536" lon="1.86157">
        <ele>347.2</ele>
        <time>2024-08-14T16:46:54.099Z</time>
      </trkpt>
      <trkpt lat="43.21539" lon="1.86184">
        <ele>347</ele>
        <time>2024-08-14T16:46:58.461Z</time>
      </trkpt>
      <trkpt lat="43.21539" lon="1.86202">
        <ele>346.8</ele>
        <time>2024-08-14T16:47:02.827Z</time>
      </trkpt>
      <trkpt lat="43.21541" lon="1.86224">
        <ele>346.2</ele>
        <time>2024-08-14T16:47:07.197Z</time>
      </trkpt>
      <trkpt lat="43.21543" lon="1.86236">
        <ele>345.8</ele>
        <time>2024-08-14T16:47:11.569Z</time>
      </trkpt>
      <trkpt lat="43.21545" lon="1.86258">
        <ele>345.2</ele>
        <time>2024-08-14T16:47:15.945Z</time>
      </trkpt>
      <trkpt lat="43.2155" lon="1.86269">
        <ele>345</ele>
        <time>2024-08-14T16:47:20.323Z</time>
      </trkpt>
      <trkpt lat="43.21556" lon="1.86299">
        <ele>344.6</ele>
        <time>2024-08-14T16:47:24.707Z</time>
      </trkpt>
      <trkpt lat="43.21553" lon="1.86315">
        <ele>344</ele>
        <time>2024-08-14T16:47:29.093Z</time>
      </trkpt>
      <trkpt lat="43.21549" lon="1.86329">
        <ele>343.4</ele>
        <time>2024-08-14T16:47:33.482Z</time>
      </trkpt>
      <trkpt lat="43.21549" lon="1.86337">
        <ele>342.8</ele>
        <time>2024-08-14T16:47:37.873Z</time>
      </trkpt>
      <trkpt lat="43.21548" lon="1.86342">
        <ele>342.6</ele>
        <time>2024-08-14T16:47:42.265Z</time>
      </trkpt>
      <trkpt lat="43.21551" lon="1.86357">
        <ele>342</ele>
        <time>2024-08-14T16:47:46.659Z</time>
      </trkpt>
      <trkpt lat="43.21551" lon="1.8636">
        <ele>341.8</ele>
        <time>2024-08-14T16:47:51.054Z</time>
      </trkpt>
      <trkpt lat="43.21551" lon="1.86374">
        <ele>341.2</ele>
        <time>2024-08-14T16:47:55.451Z</time>
      </trkpt>
      <trkpt lat="43.21551" lon="1.86376">
        <ele>341.2</ele>
        <time>2024-08-14T16:47:59.849Z</time>
      </trkpt>
      <trkpt lat="43.21552" lon="1.86382">
        <ele>341.2</ele>
        <time>2024-08-14T16:48:04.248Z</time>
      </trkpt>
      <trkpt lat="43.21552" lon="1.86382">
        <ele>341</ele>
        <time>2024-08-14T16:48:08.647Z</time>
      </trkpt>
      <trkpt lat="43.2155" lon="1.86385">
        <ele>341</ele>
        <time>2024-08-14T16:48:13.047Z</time>
      </trkpt>
      <trkpt lat="43.21549" lon="1.86398">
        <ele>341</ele>
        <time>2024-08-14T16:48:17.449Z</time>
      </trkpt>
      <trkpt lat="43.21548" lon="1.86404">
        <ele>341</ele>
        <time>2024-08-14T16:48:21.852Z</time>
      </trkpt>
      <trkpt lat="43.21552" lon="1.86416">
        <ele>340.8</ele>
        <time>2024-08-14T16:48:26.257Z</time>
      </trkpt>
      <trkpt lat="43.21553" lon="1.86417">
        <ele>340.6</ele>
        <time>2024-08-14T16:48:30.663Z</time>
      </trkpt>
      <trkpt lat="43.21557" lon="1.86421">
        <ele>340.4</ele>
        <time>2024-08-14T16:48:35.070Z</time>
      </trkpt>
      <trkpt lat="43.21564" lon="1.86418">
        <ele>340.6</ele>
        <time>2024-08-14T16:48:39.479Z</time>
      </trkpt>
      <trkpt lat="43.21576" lon="1.86413">
        <ele>341</ele>
        <time>2024-08-14T16:48:43.891Z</time>
      </trkpt>
      <trkpt lat="43.21587" lon="1.86413">
        <ele>341.4</ele>
        <time>2024-08-14T16:48:48.305Z</time>
      </trkpt>
      <trkpt lat="43.21597" lon="1.86414">
        <ele>341.6</ele>
        <time>2024-08-14T16:48:52.722Z</time>
      </trkpt>
      <trkpt lat="43.21601" lon="1.86413">
        <ele>341.6</ele>
        <time>2024-08-14T16:48:57.140Z</time>
      </trkpt>
      <trkpt lat="43.21607" lon="1.86414">
        <ele>341.8</ele>
        <time>2024-08-14T16:49:01.559Z</time>
      </trkpt>
      <trkpt lat="43.21608" lon="1.86416">
        <ele>342</ele>
        <time>2024-08-14T16:49:05.979Z</time>
      </trkpt>
      <trkpt lat="43.21609" lon="1.86422">
        <ele>342.8</ele>
        <time>2024-08-14T16:49:10.400Z</time>
      </trkpt>
      <trkpt lat="43.21609" lon="1.86423">
        <ele>342.8</ele>
        <time>2024-08-14T16:49:14.821Z</time>
      </trkpt>
      <trkpt lat="43.21606" lon="1.86428">
        <ele>343.2</ele>
        <time>2024-08-14T16:49:19.243Z</time>
      </trkpt>
      <trkpt lat="43.21602" lon="1.86437">
        <ele>343.8</ele>
        <time>2024-08-14T16:49:23.667Z</time>
      </trkpt>
      <trkpt lat="43.21601" lon="1.8644">
        <ele>344</ele>
        <time>2024-08-14T16:49:28.092Z</time>
      </trkpt>
      <trkpt lat="43.21599" lon="1.86444">
        <ele>344.2</ele>
        <time>2024-08-14T16:49:32.518Z</time>
      </trkpt>
      <trkpt lat="43.21594" lon="1.86454">
        <ele>344.6</ele>
        <time>2024-08-14T16:49:36.946Z</time>
      </trkpt>
      <trkpt lat="43.21591" lon="1.86459">
        <ele>345</ele>
        <time>2024-08-14T16:49:41.375Z</time>
      </trkpt>
      <trkpt lat="43.21587" lon="1.86466">
        <ele>345.2</ele>
        <time>2024-08-14T16:49:45.805Z</time>
      </trkpt>
      <trkpt lat="43.21578" lon="1.86482">
        <ele>346.2</ele>
        <time>2024-08-14T16:49:50.239Z</time>
      </trkpt>
      <trkpt lat="43.21577" lon="1.86485">
        <ele>346.2</ele>
        <time>2024-08-14T16:49:54.674Z</time>
      </trkpt>
      <trkpt lat="43.21571" lon="1.86498">
        <ele>347.2</ele>
        <time>2024-08-14T16:49:59.112Z</time>
      </trkpt>
      <trkpt lat="43.21569" lon="1.86502">
        <ele>347.4</ele>
        <time>2024-08-14T16:50:03.550Z</time>
      </trkpt>
      <trkpt lat="43.21566" lon="1.86512">
        <ele>348.2</ele>
        <time>2024-08-14T16:50:07.990Z</time>
      </trkpt>
      <trkpt lat="43.21562" lon="1.86521">
        <ele>349.2</ele>
        <time>2024-08-14T16:50:12.432Z</time>
      </trkpt>
      <trkpt lat="43.21558" lon="1.86536">
        <ele>350</ele>
        <time>2024-08-14T16:50:16.877Z</time>
      </trkpt>
      <trkpt lat="43.21557" lon="1.86543">
        <ele>350.6</ele>
        <time>2024-08-14T16:50:21.323Z</time>
      </trkpt>
      <trkpt lat="43.21553" lon="1.86558">
        <ele>351.8</ele>
        <time>2024-08-14T16:50:25.772Z</time>
      </trkpt>
      <trkpt lat="43.2155" lon="1.86567">
        <ele>352.2</ele>
        <time>2024-08-14T16:50:30.223Z</time>
      </trkpt>
      <trkpt lat="43.21542" lon="1.8659">
        <ele>353</ele>
        <time>2024-08-14T16:50:34.679Z</time>
      </trkpt>
      <trkpt lat="43.2154" lon="1.86595">
        <ele>353.4</ele>
        <time>2024-08-14T16:50:39.136Z</time>
      </trkpt>
      <trkpt lat="43.21538" lon="1.86599">
        <ele>353.6</ele>
        <time>2024-08-14T16:50:43.593Z</time>
      </trkpt>
      <trkpt lat="43.21534" lon="1.86615">
        <ele>353.8</ele>
        <time>2024-08-14T16:50:48.053Z</time>
      </trkpt>
      <trkpt lat="43.21532" lon="1.86619">
        <ele>354</ele>
        <time>2024-08-14T16:50:52.514Z</time>
      </trkpt>
      <trkpt lat="43.21517" lon="1.86663">
        <ele>354.6</ele>
        <time>2024-08-14T16:50:56.984Z</time>
      </trkpt>
      <trkpt lat="43.21508" lon="1.86691">
        <ele>354.8</ele>
        <time>2024-08-14T16:51:01.460Z</time>
      </trkpt>
      <trkpt lat="43.21505" lon="1.86713">
        <ele>354.8</ele>
        <time>2024-08-14T16:51:05.939Z</time>
      </trkpt>
      <trkpt lat="43.21506" lon="1.86744">
        <ele>354.6</ele>
        <time>2024-08-14T16:51:10.424Z</time>
      </trkpt>
      <trkpt lat="43.21491" lon="1.86775">
        <ele>354.6</ele>
        <time>2024-08-14T16:51:14.916Z</time>
      </trkpt>
      <trkpt lat="43.21479" lon="1.86795">
        <ele>355</ele>
        <time>2024-08-14T16:51:19.412Z</time>
      </trkpt>
      <trkpt lat="43.21473" lon="1.86809">
        <ele>355.4</ele>
        <time>2024-08-14T16:51:23.911Z</time>
      </trkpt>
      <trkpt lat="43.21465" lon="1.86836">
        <ele>355.4</ele>
        <time>2024-08-14T16:51:28.416Z</time>
      </trkpt>
      <trkpt lat="43.21452" lon="1.86855">
        <ele>355.4</ele>
        <time>2024-08-14T16:51:32.925Z</time>
      </trkpt>
      <trkpt lat="43.21444" lon="1.86865">
        <ele>355.2</ele>
        <time>2024-08-14T16:51:37.437Z</time>
      </trkpt>
      <trkpt lat="43.2144" lon="1.8687">
        <ele>355.2</ele>
        <time>2024-08-14T16:51:41.950Z</time>
      </trkpt>
      <trkpt lat="43.21438" lon="1.86883">
        <ele>355.2</ele>
        <time>2024-08-14T16:51:46.466Z</time>
      </trkpt>
      <trkpt lat="43.21443" lon="1.86894">
        <ele>354.8</ele>
        <time>2024-08-14T16:51:50.984Z</time>
      </trkpt>
      <trkpt lat="43.21448" lon="1.86899">
        <ele>354.6</ele>
        <time>2024-08-14T16:51:55.503Z</time>
      </trkpt>
      <trkpt lat="43.21453" lon="1.86903">
        <ele>354.4</ele>
        <time>2024-08-14T16:52:00.024Z</time>
      </trkpt>
      <trkpt lat="43.21462" lon="1.8691">
        <ele>353.8</ele>
        <time>2024-08-14T16:52:04.547Z</time>
      </trkpt>
      <trkpt lat="43.21466" lon="1.86915">
        <ele>353.6</ele>
        <time>2024-08-14T16:52:09.072Z</time>
      </trkpt>
      <trkpt lat="43.21468" lon="1.8692">
        <ele>353.6</ele>
        <time>2024-08-14T16:52:13.598Z</time>
      </trkpt>
      <trkpt lat="43.21471" lon="1.86926">
        <ele>353.4</ele>
        <time>2024-08-14T16:52:18.125Z</time>
      </trkpt>
      <trkpt lat="43.21473" lon="1.86945">
        <ele>352.8</ele>
        <time>2024-08-14T16:52:22.655Z</time>
      </trkpt>
      <trkpt lat="43.21474" lon="1.86949">
        <ele>352.6</ele>
        <time>2024-08-14T16:52:27.186Z</time>
      </trkpt>
      <trkpt lat="43.21477" lon="1.86965">
        <ele>352.4</ele>
        <time>2024-08-14T16:52:31.720Z</time>
      </trkpt>
      <trkpt lat="43.21483" lon="1.86994">
        <ele>352</ele>
        <time>2024-08-14T16:52:36.260Z</time>
      </trkpt>
      <trkpt lat="43.21484" lon="1.87019">
        <ele>352.4</ele>
        <time>2024-08-14T16:52:40.804Z</time>
      </trkpt>
      <trkpt lat="43.21481" lon="1.87048">
        <ele>353</ele>
        <time>2024-08-14T16:52:45.353Z</time>
      </trkpt>
      <trkpt lat="43.2148" lon="1.87076">
        <ele>353.8</ele>
        <time>2024-08-14T16:52:49.907Z</time>
      </trkpt>
      <trkpt lat="43.21479" lon="1.87084">
        <ele>354</ele>
        <time>2024-08-14T16:52:54.463Z</time>
      </trkpt>
      <trkpt lat="43.2148" lon="1.87102">
        <ele>354.8</ele>
        <time>2024-08-14T16:52:59.022Z</time>
      </trkpt>
      <trkpt lat="43.2148" lon="1.87107">
        <ele>354.8</ele>
        <time>2024-08-14T16:53:03.582Z</time>
      </trkpt>
      <trkpt lat="43.21481" lon="1.87122">
        <ele>355.6</ele>
        <time>2024-08-14T16:53:08.145Z</time>
      </trkpt>
      <trkpt lat="43.21482" lon="1.87126">
        <ele>355.8</ele>
        <time>2024-08-14T16:53:12.708Z</time>
      </trkpt>
      <trkpt lat="43.21482" lon="1.87138">
        <ele>357.4</ele>
        <time>2024-08-14T16:53:17.274Z</time>
      </trkpt>
      <trkpt lat="43.21484" lon="1.87148">
        <ele>357.8</ele>
        <time>2024-08-14T16:53:21.841Z</time>
      </trkpt>
      <trkpt lat="43.21486" lon="1.87157">
        <ele>358.4</ele>
        <time>2024-08-14T16:53:26.410Z</time>
      </trkpt>
      <trkpt lat="43.2149" lon="1.87171">
        <ele>359.6</ele>
        <time>2024-08-14T16:53:30.982Z</time>
      </trkpt>
      <trkpt lat="43.21492" lon="1.87177">
        <ele>360</ele>
        <time>2024-08-14T16:53:35.555Z</time>
      </trkpt>
      <trkpt lat="43.21497" lon="1.8719">
        <ele>361</ele>
        <time>2024-08-14T16:53:40.131Z</time>
      </trkpt>
      <trkpt lat="43.21503" lon="1.87206">
        <ele>362</ele>
        <time>2024-08-14T16:53:44.710Z</time>
      </trkpt>
      <trkpt lat="43.21507" lon="1.8722">
        <ele>363.4</ele>
        <time>2024-08-14T16:53:49.292Z</time>
      </trkpt>
      <trkpt lat="43.21508" lon="1.87233">
        <ele>364.2</ele>
        <time>2024-08-14T16:53:53.876Z</time>
      </trkpt>
      <trkpt lat="43.21508" lon="1.87243">
        <ele>364.6</ele>
        <time>2024-08-14T16:53:58.462Z</time>
      </trkpt>
      <trkpt lat="43.21508" lon="1.8726">
        <ele>365.2</ele>
        <time>2024-08-14T16:54:03.051Z</time>
      </trkpt>
      <trkpt lat="43.21507" lon="1.87263">
        <ele>365.4</ele>
        <time>2024-08-14T16:54:07.640Z</time>
      </trkpt>
      <trkpt lat="43.21503" lon="1.87266">
        <ele>365.6</ele>
        <time>2024-08-14T16:54:12.230Z</time>
      </trkpt>
      <trkpt lat="43.21487" lon="1.87275">
        <ele>365.8</ele>
        <time>2024-08-14T16:54:16.825Z</time>
      </trkpt>
      <trkpt lat="43.2146" lon="1.8728">
        <ele>365.8</ele>
        <time>2024-08-14T16:54:21.426Z</time>
      </trkpt>
      <trkpt lat="43.21438" lon="1.87285">
        <ele>366.2</ele>
        <time>2024-08-14T16:54:26.033Z</time>
      </trkpt>
      <trkpt lat="43.21422" lon="1.87289">
        <ele>366.8</ele>
        <time>2024-08-14T16:54:30.644Z</time>
      </trkpt>
      <trkpt lat="43.21418" lon="1.8729">
        <ele>367</ele>
        <time>2024-08-14T16:54:35.256Z</time>
      </trkpt>
      <trkpt lat="43.214" lon="1.87292">
        <ele>367.8</ele>
        <time>2024-08-14T16:54:39.872Z</time>
      </trkpt>
      <trkpt lat="43.21396" lon="1.87292">
        <ele>368.2</ele>
        <time>2024-08-14T16:54:44.489Z</time>
      </trkpt>
      <trkpt lat="43.21373" lon="1.87297">
        <ele>368.8</ele>
        <time>2024-08-14T16:54:49.112Z</time>
      </trkpt>
      <trkpt lat="43.2136" lon="1.87305">
        <ele>369.2</ele>
        <time>2024-08-14T16:54:53.739Z</time>
      </trkpt>
      <trkpt lat="43.21358" lon="1.87307">
        <ele>369.4</ele>
        <time>2024-08-14T16:54:58.366Z</time>
      </trkpt>
      <trkpt lat="43.21345" lon="1.87319">
        <ele>370.2</ele>
        <time>2024-08-14T16:55:02.997Z</time>
      </trkpt>
      <trkpt lat="43.21342" lon="1.8732">
        <ele>370.4</ele>
        <time>2024-08-14T16:55:07.629Z</time>
      </trkpt>
      <trkpt lat="43.21325" lon="1.87329">
        <ele>371</ele>
        <time>2024-08-14T16:55:12.265Z</time>
      </trkpt>
      <trkpt lat="43.21321" lon="1.8733">
        <ele>371.2</ele>
        <time>2024-08-14T16:55:16.902Z</time>
      </trkpt>
      <trkpt lat="43.21307" lon="1.87336">
        <ele>372.6</ele>
        <time>2024-08-14T16:55:21.543Z</time>
      </trkpt>
      <trkpt lat="43.21297" lon="1.8734">
        <ele>373.8</ele>
        <time>2024-08-14T16:55:26.186Z</time>
      </trkpt>
      <trkpt lat="43.21281" lon="1.87343">
        <ele>374.4</ele>
        <time>2024-08-14T16:55:30.833Z</time>
      </trkpt>
      <trkpt lat="43.21262" lon="1.87349">
        <ele>374.8</ele>
        <time>2024-08-14T16:55:35.485Z</time>
      </trkpt>
      <trkpt lat="43.21257" lon="1.87351">
        <ele>374.8</ele>
        <time>2024-08-14T16:55:40.138Z</time>
      </trkpt>
      <trkpt lat="43.21227" lon="1.87358">
        <ele>374.2</ele>
        <time>2024-08-14T16:55:44.799Z</time>
      </trkpt>
      <trkpt lat="43.21203" lon="1.87364">
        <ele>373</ele>
        <time>2024-08-14T16:55:49.466Z</time>
      </trkpt>
      <trkpt lat="43.21196" lon="1.87368">
        <ele>373</ele>
        <time>2024-08-14T16:55:54.135Z</time>
      </trkpt>
      <trkpt lat="43.21188" lon="1.87373">
        <ele>372.8</ele>
        <time>2024-08-14T16:55:58.806Z</time>
      </trkpt>
      <trkpt lat="43.21165" lon="1.87389">
        <ele>371.6</ele>
        <time>2024-08-14T16:56:03.483Z</time>
      </trkpt>
      <trkpt lat="43.21151" lon="1.874">
        <ele>371</ele>
        <time>2024-08-14T16:56:08.164Z</time>
      </trkpt>
      <trkpt lat="43.21143" lon="1.87407">
        <ele>370.4</ele>
        <time>2024-08-14T16:56:12.848Z</time>
      </trkpt>
      <trkpt lat="43.21134" lon="1.87414">
        <ele>369.4</ele>
        <time>2024-08-14T16:56:17.534Z</time>
      </trkpt>
      <trkpt lat="43.21125" lon="1.87423">
        <ele>368.2</ele>
        <time>2024-08-14T16:56:22.223Z</time>
      </trkpt>
      <trkpt lat="43.2111" lon="1.87437">
        <ele>367</ele>
        <time>2024-08-14T16:56:26.916Z</time>
      </trkpt>
      <trkpt lat="43.21102" lon="1.87444">
        <ele>366.6</ele>
        <time>2024-08-14T16:56:31.611Z</time>
      </trkpt>
      <trkpt lat="43.21082" lon="1.87461">
        <ele>366</ele>
        <time>2024-08-14T16:56:36.312Z</time>
      </trkpt>
      <trkpt lat="43.21073" lon="1.87466">
        <ele>365</ele>
        <time>2024-08-14T16:56:41.016Z</time>
      </trkpt>
      <trkpt lat="43.21071" lon="1.87467">
        <ele>364</ele>
        <time>2024-08-14T16:56:45.720Z</time>
      </trkpt>
      <trkpt lat="43.21071" lon="1.87468">
        <ele>363.8</ele>
        <time>2024-08-14T16:56:50.424Z</time>
      </trkpt>
      <trkpt lat="43.21068" lon="1.8747">
        <ele>363</ele>
        <time>2024-08-14T16:56:55.129Z</time>
      </trkpt>
      <trkpt lat="43.21067" lon="1.8747">
        <ele>362.6</ele>
        <time>2024-08-14T16:56:59.834Z</time>
      </trkpt>
      <trkpt lat="43.2106" lon="1.87483">
        <ele>362.4</ele>
        <time>2024-08-14T16:57:04.542Z</time>
      </trkpt>
      <trkpt lat="43.21057" lon="1.87488">
        <ele>362.4</ele>
        <time>2024-08-14T16:57:09.251Z</time>
      </trkpt>
      <trkpt lat="43.21055" lon="1.87492">
        <ele>362.4</ele>
        <time>2024-08-14T16:57:13.961Z</time>
      </trkpt>
      <trkpt lat="43.21042" lon="1.87512">
        <ele>362.6</ele>
        <time>2024-08-14T16:57:18.676Z</time>
      </trkpt>
      <trkpt lat="43.2104" lon="1.87516">
        <ele>362.8</ele>
        <time>2024-08-14T16:57:23.392Z</time>
      </trkpt>
      <trkpt lat="43.21033" lon="1.87526">
        <ele>363</ele>
        <time>2024-08-14T16:57:28.110Z</time>
      </trkpt>
      <trkpt lat="43.21019" lon="1.87547">
        <ele>363.6</ele>
        <time>2024-08-14T16:57:32.834Z</time>
      </trkpt>
      <trkpt lat="43.21016" lon="1.8755">
        <ele>363.6</ele>
        <time>2024-08-14T16:57:37.558Z</time>
      </trkpt>
      <trkpt lat="43.21013" lon="1.87551">
        <ele>363.8</ele>
        <time>2024-08-14T16:57:42.283Z</time>
      </trkpt>
      <trkpt lat="43.20997" lon="1.87554">
        <ele>364.4</ele>
        <time>2024-08-14T16:57:47.012Z</time>
      </trkpt>
      <trkpt lat="43.20972" lon="1.87557">
        <ele>364.6</ele>
        <time>2024-08-14T16:57:51.748Z</time>
      </trkpt>
      <trkpt lat="43.20953" lon="1.87554">
        <ele>364.6</ele>
        <time>2024-08-14T16:57:56.488Z</time>
      </trkpt>
      <trkpt lat="43.2095" lon="1.87554">
        <ele>364.6</ele>
        <time>2024-08-14T16:58:01.229Z</time>
      </trkpt>
      <trkpt lat="43.20928" lon="1.87554">
        <ele>364.4</ele>
        <time>2024-08-14T16:58:05.975Z</time>
      </trkpt>
      <trkpt lat="43.20909" lon="1.87556">
        <ele>364.4</ele>
        <time>2024-08-14T16:58:10.726Z</time>
      </trkpt>
      <trkpt lat="43.20889" lon="1.8756">
        <ele>364.4</ele>
        <time>2024-08-14T16:58:15.482Z</time>
      </trkpt>
      <trkpt lat="43.20857" lon="1.87574">
        <ele>364.8</ele>
        <time>2024-08-14T16:58:20.246Z</time>
      </trkpt>
      <trkpt lat="43.20849" lon="1.87577">
        <ele>365.4</ele>
        <time>2024-08-14T16:58:25.012Z</time>
      </trkpt>
      <trkpt lat="43.20844" lon="1.87577">
        <ele>365.8</ele>
        <time>2024-08-14T16:58:29.779Z</time>
      </trkpt>
      <trkpt lat="43.20822" lon="1.87582">
        <ele>367</ele>
        <time>2024-08-14T16:58:34.552Z</time>
      </trkpt>
      <trkpt lat="43.20817" lon="1.87581">
        <ele>367.2</ele>
        <time>2024-08-14T16:58:39.326Z</time>
      </trkpt>
      <trkpt lat="43.20813" lon="1.87577">
        <ele>367.2</ele>
        <time>2024-08-14T16:58:44.101Z</time>
      </trkpt>
      <trkpt lat="43.20806" lon="1.8757">
        <ele>367.4</ele>
        <time>2024-08-14T16:58:48.878Z</time>
      </trkpt>
      <trkpt lat="43.20797" lon="1.87554">
        <ele>367.4</ele>
        <time>2024-08-14T16:58:53.659Z</time>
      </trkpt>
      <trkpt lat="43.20794" lon="1.87549">
        <ele>367.6</ele>
        <time>2024-08-14T16:58:58.441Z</time>
      </trkpt>
      <trkpt lat="43.20787" lon="1.87542">
        <ele>367.6</ele>
        <time>2024-08-14T16:59:03.225Z</time>
      </trkpt>
      <trkpt lat="43.20775" lon="1.87533">
        <ele>367.4</ele>
        <time>2024-08-14T16:59:08.013Z</time>
      </trkpt>
      <trkpt lat="43.20764" lon="1.87527">
        <ele>367.2</ele>
        <time>2024-08-14T16:59:12.804Z</time>
      </trkpt>
      <trkpt lat="43.20755" lon="1.87522">
        <ele>367.2</ele>
        <time>2024-08-14T16:59:17.597Z</time>
      </trkpt>
      <trkpt lat="43.20751" lon="1.87518">
        <ele>367.2</ele>
        <time>2024-08-14T16:59:22.391Z</time>
      </trkpt>
      <trkpt lat="43.20722" lon="1.87498">
        <ele>367.2</ele>
        <time>2024-08-14T16:59:27.193Z</time>
      </trkpt>
      <trkpt lat="43.20697" lon="1.8749">
        <ele>366.8</ele>
        <time>2024-08-14T16:59:32.001Z</time>
      </trkpt>
      <trkpt lat="43.20684" lon="1.87486">
        <ele>366.4</ele>
        <time>2024-08-14T16:59:36.813Z</time>
      </trkpt>
      <trkpt lat="43.20675" lon="1.87486">
        <ele>366.2</ele>
        <time>2024-08-14T16:59:41.627Z</time>
      </trkpt>
      <trkpt lat="43.20652" lon="1.87489">
        <ele>366.4</ele>
        <time>2024-08-14T16:59:46.447Z</time>
      </trkpt>
      <trkpt lat="43.20639" lon="1.87493">
        <ele>367.8</ele>
        <time>2024-08-14T16:59:51.270Z</time>
      </trkpt>
      <trkpt lat="43.20636" lon="1.87494">
        <ele>368</ele>
        <time>2024-08-14T16:59:56.094Z</time>
      </trkpt>
      <trkpt lat="43.20623" lon="1.87501">
        <ele>369</ele>
        <time>2024-08-14T17:00:00.921Z</time>
      </trkpt>
      <trkpt lat="43.20618" lon="1.875">
        <ele>369.17</ele>
        <time>2024-08-14T17:00:05.749Z</time>
      </trkpt>
      <trkpt lat="43.20618" lon="1.875">
        <ele>369.18</ele>
        <time>2024-08-14T17:00:10.577Z</time>
      </trkpt>
      <trkpt lat="43.20618" lon="1.875">
        <ele>369.19</ele>
        <time>2024-08-14T17:00:15.405Z</time>
      </trkpt>
      <trkpt lat="43.20618" lon="1.87496">
        <ele>372.22</ele>
        <time>2024-08-14T17:00:20.234Z</time>
      </trkpt>
      <trkpt lat="43.20605" lon="1.87498">
        <ele>373.05</ele>
        <time>2024-08-14T17:00:25.066Z</time>
      </trkpt>
      <trkpt lat="43.20584" lon="1.87507">
        <ele>374.14</ele>
        <time>2024-08-14T17:00:29.904Z</time>
      </trkpt>
      <trkpt lat="43.20551" lon="1.87535">
        <ele>375.36</ele>
        <time>2024-08-14T17:00:34.751Z</time>
      </trkpt>
      <trkpt lat="43.20485" lon="1.87577">
        <ele>375.92</ele>
        <time>2024-08-14T17:00:39.616Z</time>
      </trkpt>
      <trkpt lat="43.20457" lon="1.87607">
        <ele>376.43</ele>
        <time>2024-08-14T17:00:44.490Z</time>
      </trkpt>
      <trkpt lat="43.20405" lon="1.87676">
        <ele>376.74</ele>
        <time>2024-08-14T17:00:49.382Z</time>
      </trkpt>
      <trkpt lat="43.20398" lon="1.87681">
        <ele>377.11</ele>
        <time>2024-08-14T17:00:54.275Z</time>
      </trkpt>
      <trkpt lat="43.20387" lon="1.87684">
        <ele>377.43</ele>
        <time>2024-08-14T17:00:59.171Z</time>
      </trkpt>
      <trkpt lat="43.20372" lon="1.87682">
        <ele>377.75</ele>
        <time>2024-08-14T17:01:04.071Z</time>
      </trkpt>
      <trkpt lat="43.20339" lon="1.87691">
        <ele>378.02</ele>
        <time>2024-08-14T17:01:08.979Z</time>
      </trkpt>
      <trkpt lat="43.20332" lon="1.87692">
        <ele>378.1</ele>
        <time>2024-08-14T17:01:13.889Z</time>
      </trkpt>
      <trkpt lat="43.20333" lon="1.87701">
        <ele>378</ele>
        <time>2024-08-14T17:01:18.800Z</time>
      </trkpt>
      <trkpt lat="43.20338" lon="1.87724">
        <ele>377.65</ele>
        <time>2024-08-14T17:01:23.716Z</time>
      </trkpt>
      <trkpt lat="43.20337" lon="1.87734">
        <ele>376.72</ele>
        <time>2024-08-14T17:01:28.634Z</time>
      </trkpt>
      <trkpt lat="43.20345" lon="1.87745">
        <ele>375.11</ele>
        <time>2024-08-14T17:01:33.554Z</time>
      </trkpt>
      <trkpt lat="43.20359" lon="1.87783">
        <ele>372.66</ele>
        <time>2024-08-14T17:01:38.482Z</time>
      </trkpt>
      <trkpt lat="43.20374" lon="1.87838">
        <ele>368.96</ele>
        <time>2024-08-14T17:01:43.421Z</time>
      </trkpt>
      <trkpt lat="43.20377" lon="1.87858">
        <ele>365.66</ele>
        <time>2024-08-14T17:01:48.363Z</time>
      </trkpt>
      <trkpt lat="43.20378" lon="1.87872">
        <ele>362.23</ele>
        <time>2024-08-14T17:01:53.308Z</time>
      </trkpt>
      <trkpt lat="43.20375" lon="1.87921">
        <ele>358.39</ele>
        <time>2024-08-14T17:01:58.262Z</time>
      </trkpt>
      <trkpt lat="43.20381" lon="1.87964">
        <ele>354.27</ele>
        <time>2024-08-14T17:02:03.223Z</time>
      </trkpt>
      <trkpt lat="43.20384" lon="1.87973">
        <ele>351.58</ele>
        <time>2024-08-14T17:02:08.186Z</time>
      </trkpt>
      <trkpt lat="43.20384" lon="1.87973">
        <ele>351.57</ele>
        <time>2024-08-14T17:02:13.149Z</time>
      </trkpt>
      <trkpt lat="43.20384" lon="1.87973">
        <ele>351.56</ele>
        <time>2024-08-14T17:02:18.112Z</time>
      </trkpt>
      <trkpt lat="43.20392" lon="1.8797">
        <ele>342.22</ele>
        <time>2024-08-14T17:02:23.077Z</time>
      </trkpt>
      <trkpt lat="43.20415" lon="1.87967">
        <ele>340.17</ele>
        <time>2024-08-14T17:02:28.048Z</time>
      </trkpt>
      <trkpt lat="43.20427" lon="1.87968">
        <ele>337.77</ele>
        <time>2024-08-14T17:02:33.022Z</time>
      </trkpt>
      <trkpt lat="43.20438" lon="1.87973">
        <ele>335.12</ele>
        <time>2024-08-14T17:02:37.999Z</time>
      </trkpt>
      <trkpt lat="43.20446" lon="1.8798">
        <ele>332.51</ele>
        <time>2024-08-14T17:02:42.978Z</time>
      </trkpt>
      <trkpt lat="43.20482" lon="1.88017">
        <ele>329.36</ele>
        <time>2024-08-14T17:02:47.968Z</time>
      </trkpt>
      <trkpt lat="43.20525" lon="1.88048">
        <ele>326.31</ele>
        <time>2024-08-14T17:02:52.970Z</time>
      </trkpt>
      <trkpt lat="43.20534" lon="1.88053">
        <ele>323.96</ele>
        <time>2024-08-14T17:02:57.975Z</time>
      </trkpt>
      <trkpt lat="43.20568" lon="1.88065">
        <ele>321.56</ele>
        <time>2024-08-14T17:03:02.988Z</time>
      </trkpt>
      <trkpt lat="43.20576" lon="1.88067">
        <ele>319.92</ele>
        <time>2024-08-14T17:03:08.003Z</time>
      </trkpt>
      <trkpt lat="43.20592" lon="1.88067">
        <ele>318.77</ele>
        <time>2024-08-14T17:03:13.022Z</time>
      </trkpt>
      <trkpt lat="43.20598" lon="1.88074">
        <ele>317.97</ele>
        <time>2024-08-14T17:03:18.043Z</time>
      </trkpt>
      <trkpt lat="43.20601" lon="1.88088">
        <ele>317.43</ele>
        <time>2024-08-14T17:03:23.067Z</time>
      </trkpt>
      <trkpt lat="43.20597" lon="1.88092">
        <ele>317.07</ele>
        <time>2024-08-14T17:03:28.092Z</time>
      </trkpt>
      <trkpt lat="43.20592" lon="1.88099">
        <ele>316.87</ele>
        <time>2024-08-14T17:03:33.118Z</time>
      </trkpt>
      <trkpt lat="43.20586" lon="1.88128">
        <ele>316.78</ele>
        <time>2024-08-14T17:03:38.150Z</time>
      </trkpt>
      <trkpt lat="43.20583" lon="1.88134">
        <ele>316.61</ele>
        <time>2024-08-14T17:03:43.183Z</time>
      </trkpt>
      <trkpt lat="43.20571" lon="1.88144">
        <ele>316.32</ele>
        <time>2024-08-14T17:03:48.220Z</time>
      </trkpt>
      <trkpt lat="43.20566" lon="1.88151">
        <ele>316.09</ele>
        <time>2024-08-14T17:03:53.258Z</time>
      </trkpt>
      <trkpt lat="43.20561" lon="1.8816">
        <ele>315.75</ele>
        <time>2024-08-14T17:03:58.298Z</time>
      </trkpt>
      <trkpt lat="43.20557" lon="1.88173">
        <ele>315.24</ele>
        <time>2024-08-14T17:04:03.341Z</time>
      </trkpt>
      <trkpt lat="43.20553" lon="1.88196">
        <ele>314.41</ele>
        <time>2024-08-14T17:04:08.388Z</time>
      </trkpt>
      <trkpt lat="43.20552" lon="1.88216">
        <ele>313.38</ele>
        <time>2024-08-14T17:04:13.439Z</time>
      </trkpt>
      <trkpt lat="43.20556" lon="1.88245">
        <ele>312.19</ele>
        <time>2024-08-14T17:04:18.495Z</time>
      </trkpt>
      <trkpt lat="43.20567" lon="1.88284">
        <ele>310.97</ele>
        <time>2024-08-14T17:04:23.559Z</time>
      </trkpt>
      <trkpt lat="43.20574" lon="1.88336">
        <ele>309.73</ele>
        <time>2024-08-14T17:04:28.632Z</time>
      </trkpt>
      <trkpt lat="43.20611" lon="1.88465">
        <ele>307.82</ele>
        <time>2024-08-14T17:04:33.730Z</time>
      </trkpt>
      <trkpt lat="43.20616" lon="1.88492">
        <ele>306.62</ele>
        <time>2024-08-14T17:04:38.833Z</time>
      </trkpt>
      <trkpt lat="43.20627" lon="1.88564">
        <ele>305.48</ele>
        <time>2024-08-14T17:04:43.949Z</time>
      </trkpt>
      <trkpt lat="43.20627" lon="1.88576">
        <ele>304.59</ele>
        <time>2024-08-14T17:04:49.067Z</time>
      </trkpt>
      <trkpt lat="43.20624" lon="1.88588">
        <ele>303.87</ele>
        <time>2024-08-14T17:04:54.188Z</time>
      </trkpt>
      <trkpt lat="43.20623" lon="1.88589">
        <ele>303.27</ele>
        <time>2024-08-14T17:04:59.309Z</time>
      </trkpt>
      <trkpt lat="43.20625" lon="1.88591">
        <ele>302.85</ele>
        <time>2024-08-14T17:05:04.430Z</time>
      </trkpt>
      <trkpt lat="43.20625" lon="1.88591">
        <ele>302.84</ele>
        <time>2024-08-14T17:05:09.551Z</time>
      </trkpt>
      <trkpt lat="43.20625" lon="1.88591">
        <ele>302.83</ele>
        <time>2024-08-14T17:05:14.672Z</time>
      </trkpt>
      <trkpt lat="43.20623" lon="1.88594">
        <ele>306.2</ele>
        <time>2024-08-14T17:05:19.794Z</time>
      </trkpt>
      <trkpt lat="43.20615" lon="1.88612">
        <ele>306.2</ele>
        <time>2024-08-14T17:05:24.920Z</time>
      </trkpt>
      <trkpt lat="43.20606" lon="1.88619">
        <ele>306</ele>
        <time>2024-08-14T17:05:30.048Z</time>
      </trkpt>
      <trkpt lat="43.20601" lon="1.8862">
        <ele>305.8</ele>
        <time>2024-08-14T17:05:35.178Z</time>
      </trkpt>
      <trkpt lat="43.2058" lon="1.88628">
        <ele>305.4</ele>
        <time>2024-08-14T17:05:40.313Z</time>
      </trkpt>
      <trkpt lat="43.20575" lon="1.8863">
        <ele>305.4</ele>
        <time>2024-08-14T17:05:45.449Z</time>
      </trkpt>
      <trkpt lat="43.20571" lon="1.88633">
        <ele>305.4</ele>
        <time>2024-08-14T17:05:50.586Z</time>
      </trkpt>
      <trkpt lat="43.20556" lon="1.88646">
        <ele>305.6</ele>
        <time>2024-08-14T17:05:55.728Z</time>
      </trkpt>
      <trkpt lat="43.20548" lon="1.88653">
        <ele>306</ele>
        <time>2024-08-14T17:06:00.872Z</time>
      </trkpt>
      <trkpt lat="43.20535" lon="1.88663">
        <ele>306.4</ele>
        <time>2024-08-14T17:06:06.020Z</time>
      </trkpt>
      <trkpt lat="43.20526" lon="1.88668">
        <ele>306.6</ele>
        <time>2024-08-14T17:06:11.170Z</time>
      </trkpt>
      <trkpt lat="43.20512" lon="1.88673">
        <ele>306.8</ele>
        <time>2024-08-14T17:06:16.324Z</time>
      </trkpt>
      <trkpt lat="43.2049" lon="1.88678">
        <ele>307</ele>
        <time>2024-08-14T17:06:21.483Z</time>
      </trkpt>
      <trkpt lat="43.20473" lon="1.88685">
        <ele>307.6</ele>
        <time>2024-08-14T17:06:26.647Z</time>
      </trkpt>
      <trkpt lat="43.20463" lon="1.88693">
        <ele>307.8</ele>
        <time>2024-08-14T17:06:31.813Z</time>
      </trkpt>
      <trkpt lat="43.20442" lon="1.88715">
        <ele>308.2</ele>
        <time>2024-08-14T17:06:36.986Z</time>
      </trkpt>
      <trkpt lat="43.20428" lon="1.88724">
        <ele>308.2</ele>
        <time>2024-08-14T17:06:42.163Z</time>
      </trkpt>
      <trkpt lat="43.20412" lon="1.88729">
        <ele>308.2</ele>
        <time>2024-08-14T17:06:47.344Z</time>
      </trkpt>
      <trkpt lat="43.20368" lon="1.88747">
        <ele>306.6</ele>
        <time>2024-08-14T17:06:52.536Z</time>
      </trkpt>
      <trkpt lat="43.2036" lon="1.88754">
        <ele>306.2</ele>
        <time>2024-08-14T17:06:57.730Z</time>
      </trkpt>
      <trkpt lat="43.20353" lon="1.88762">
        <ele>305.8</ele>
        <time>2024-08-14T17:07:02.927Z</time>
      </trkpt>
      <trkpt lat="43.20346" lon="1.8877">
        <ele>305.4</ele>
        <time>2024-08-14T17:07:08.126Z</time>
      </trkpt>
      <trkpt lat="43.2034" lon="1.88778">
        <ele>305</ele>
        <time>2024-08-14T17:07:13.327Z</time>
      </trkpt>
      <trkpt lat="43.20322" lon="1.88801">
        <ele>303.8</ele>
        <time>2024-08-14T17:07:18.534Z</time>
      </trkpt>
      <trkpt lat="43.20316" lon="1.88808">
        <ele>303.6</ele>
        <time>2024-08-14T17:07:23.743Z</time>
      </trkpt>
      <trkpt lat="43.20301" lon="1.88829">
        <ele>302.6</ele>
        <time>2024-08-14T17:07:28.957Z</time>
      </trkpt>
      <trkpt lat="43.20286" lon="1.88847">
        <ele>301.6</ele>
        <time>2024-08-14T17:07:34.176Z</time>
      </trkpt>
      <trkpt lat="43.20249" lon="1.88895">
        <ele>301.4</ele>
        <time>2024-08-14T17:07:39.408Z</time>
      </trkpt>
      <trkpt lat="43.20209" lon="1.88947">
        <ele>301.2</ele>
        <time>2024-08-14T17:07:44.653Z</time>
      </trkpt>
      <trkpt lat="43.2018" lon="1.88995">
        <ele>301.6</ele>
        <time>2024-08-14T17:07:49.909Z</time>
      </trkpt>
      <trkpt lat="43.20156" lon="1.8904">
        <ele>302.6</ele>
        <time>2024-08-14T17:07:55.175Z</time>
      </trkpt>
      <trkpt lat="43.20153" lon="1.89047">
        <ele>302.6</ele>
        <time>2024-08-14T17:08:00.443Z</time>
      </trkpt>
      <trkpt lat="43.20135" lon="1.89082">
        <ele>302.8</ele>
        <time>2024-08-14T17:08:05.718Z</time>
      </trkpt>
      <trkpt lat="43.20114" lon="1.89128">
        <ele>302.2</ele>
        <time>2024-08-14T17:08:11.003Z</time>
      </trkpt>
      <trkpt lat="43.20102" lon="1.89163">
        <ele>301.4</ele>
        <time>2024-08-14T17:08:16.295Z</time>
      </trkpt>
      <trkpt lat="43.20097" lon="1.89186">
        <ele>300.8</ele>
        <time>2024-08-14T17:08:21.591Z</time>
      </trkpt>
      <trkpt lat="43.20095" lon="1.89196">
        <ele>299.6</ele>
        <time>2024-08-14T17:08:26.889Z</time>
      </trkpt>
      <trkpt lat="43.20092" lon="1.89207">
        <ele>299.2</ele>
        <time>2024-08-14T17:08:32.189Z</time>
      </trkpt>
      <trkpt lat="43.20089" lon="1.89217">
        <ele>298.6</ele>
        <time>2024-08-14T17:08:37.491Z</time>
      </trkpt>
      <trkpt lat="43.20085" lon="1.89224">
        <ele>298.4</ele>
        <time>2024-08-14T17:08:42.795Z</time>
      </trkpt>
      <trkpt lat="43.20075" lon="1.8923">
        <ele>298</ele>
        <time>2024-08-14T17:08:48.101Z</time>
      </trkpt>
      <trkpt lat="43.20069" lon="1.8923">
        <ele>297.4</ele>
        <time>2024-08-14T17:08:53.409Z</time>
      </trkpt>
      <trkpt lat="43.20059" lon="1.8923">
        <ele>297.6</ele>
        <time>2024-08-14T17:08:58.719Z</time>
      </trkpt>
      <trkpt lat="43.20055" lon="1.8923">
        <ele>297.6</ele>
        <time>2024-08-14T17:09:04.031Z</time>
      </trkpt>
      <trkpt lat="43.20021" lon="1.89229">
        <ele>297.8</ele>
        <time>2024-08-14T17:09:09.351Z</time>
      </trkpt>
      <trkpt lat="43.19978" lon="1.89225">
        <ele>297.8</ele>
        <time>2024-08-14T17:09:14.681Z</time>
      </trkpt>
      <trkpt lat="43.19951" lon="1.8922">
        <ele>298.6</ele>
        <time>2024-08-14T17:09:20.018Z</time>
      </trkpt>
      <trkpt lat="43.19935" lon="1.89216">
        <ele>299.6</ele>
        <time>2024-08-14T17:09:25.359Z</time>
      </trkpt>
      <trkpt lat="43.19919" lon="1.89215">
        <ele>300.4</ele>
        <time>2024-08-14T17:09:30.704Z</time>
      </trkpt>
      <trkpt lat="43.19913" lon="1.89216">
        <ele>300.6</ele>
        <time>2024-08-14T17:09:36.050Z</time>
      </trkpt>
      <trkpt lat="43.19899" lon="1.89215">
        <ele>300.6</ele>
        <time>2024-08-14T17:09:41.400Z</time>
      </trkpt>
      <trkpt lat="43.19883" lon="1.89215">
        <ele>300.6</ele>
        <time>2024-08-14T17:09:46.754Z</time>
      </trkpt>
      <trkpt lat="43.19854" lon="1.89216">
        <ele>299.6</ele>
        <time>2024-08-14T17:09:52.115Z</time>
      </trkpt>
      <trkpt lat="43.19833" lon="1.89218">
        <ele>299</ele>
        <time>2024-08-14T17:09:57.481Z</time>
      </trkpt>
      <trkpt lat="43.19813" lon="1.89221">
        <ele>298.4</ele>
        <time>2024-08-14T17:10:02.852Z</time>
      </trkpt>
      <trkpt lat="43.19785" lon="1.89226">
        <ele>297.8</ele>
        <time>2024-08-14T17:10:08.230Z</time>
      </trkpt>
      <trkpt lat="43.19767" lon="1.89234">
        <ele>297</ele>
        <time>2024-08-14T17:10:13.613Z</time>
      </trkpt>
      <trkpt lat="43.19743" lon="1.89244">
        <ele>296.6</ele>
        <time>2024-08-14T17:10:19.002Z</time>
      </trkpt>
      <trkpt lat="43.19697" lon="1.89265">
        <ele>296.4</ele>
        <time>2024-08-14T17:10:24.403Z</time>
      </trkpt>
      <trkpt lat="43.1968" lon="1.89276">
        <ele>296.4</ele>
        <time>2024-08-14T17:10:29.808Z</time>
      </trkpt>
      <trkpt lat="43.19658" lon="1.89292">
        <ele>295.8</ele>
        <time>2024-08-14T17:10:35.219Z</time>
      </trkpt>
      <trkpt lat="43.19626" lon="1.89322">
        <ele>295.4</ele>
        <time>2024-08-14T17:10:40.640Z</time>
      </trkpt>
      <trkpt lat="43.19606" lon="1.89341">
        <ele>295.4</ele>
        <time>2024-08-14T17:10:46.067Z</time>
      </trkpt>
      <trkpt lat="43.19604" lon="1.89342">
        <ele>291.94</ele>
        <time>2024-08-14T17:10:51.494Z</time>
      </trkpt>
      <trkpt lat="43.19604" lon="1.89343">
        <ele>291.8</ele>
        <time>2024-08-14T17:10:56.921Z</time>
      </trkpt>
      <trkpt lat="43.19605" lon="1.89343">
        <ele>292.36</ele>
        <time>2024-08-14T17:11:02.348Z</time>
      </trkpt>
      <trkpt lat="43.19597" lon="1.8935">
        <ele>292.96</ele>
        <time>2024-08-14T17:11:07.778Z</time>
      </trkpt>
      <trkpt lat="43.19584" lon="1.89354">
        <ele>293.57</ele>
        <time>2024-08-14T17:11:13.211Z</time>
      </trkpt>
      <trkpt lat="43.19572" lon="1.89353">
        <ele>294.04</ele>
        <time>2024-08-14T17:11:18.647Z</time>
      </trkpt>
      <trkpt lat="43.1954" lon="1.89347">
        <ele>294.06</ele>
        <time>2024-08-14T17:11:24.091Z</time>
      </trkpt>
      <trkpt lat="43.19515" lon="1.89349">
        <ele>294.35</ele>
        <time>2024-08-14T17:11:29.541Z</time>
      </trkpt>
      <trkpt lat="43.19498" lon="1.89353">
        <ele>294.61</ele>
        <time>2024-08-14T17:11:34.995Z</time>
      </trkpt>
      <trkpt lat="43.19498" lon="1.89353">
        <ele>294.62</ele>
        <time>2024-08-14T17:11:40.449Z</time>
      </trkpt>
      <trkpt lat="43.1945" lon="1.89365">
        <ele>292.65</ele>
        <time>2024-08-14T17:11:45.915Z</time>
      </trkpt>
      <trkpt lat="43.19418" lon="1.8938">
        <ele>291.97</ele>
        <time>2024-08-14T17:11:51.390Z</time>
      </trkpt>
      <trkpt lat="43.19418" lon="1.8938">
        <ele>291.97</ele>
        <time>2024-08-14T17:11:56.865Z</time>
      </trkpt>
      <trkpt lat="43.19418" lon="1.8938">
        <ele>291.63</ele>
        <time>2024-08-14T17:12:02.340Z</time>
      </trkpt>
      <trkpt lat="43.19516" lon="1.89413">
        <ele>306.78</ele>
        <time>2024-08-14T17:12:07.840Z</time>
      </trkpt>
      <trkpt lat="43.1952" lon="1.89441">
        <ele>311.19</ele>
        <time>2024-08-14T17:12:13.345Z</time>
      </trkpt>
      <trkpt lat="43.19535" lon="1.89448">
        <ele>314.73</ele>
        <time>2024-08-14T17:12:18.853Z</time>
      </trkpt>
      <trkpt lat="43.19539" lon="1.89453">
        <ele>317.97</ele>
        <time>2024-08-14T17:12:24.363Z</time>
      </trkpt>
      <trkpt lat="43.19546" lon="1.8947">
        <ele>321.05</ele>
        <time>2024-08-14T17:12:29.876Z</time>
      </trkpt>
      <trkpt lat="43.19535" lon="1.89467">
        <ele>323.51</ele>
        <time>2024-08-14T17:12:35.392Z</time>
      </trkpt>
      <trkpt lat="43.19524" lon="1.89491">
        <ele>326.11</ele>
        <time>2024-08-14T17:12:40.913Z</time>
      </trkpt>
      <trkpt lat="43.19521" lon="1.89497">
        <ele>327.96</ele>
        <time>2024-08-14T17:12:46.436Z</time>
      </trkpt>
      <trkpt lat="43.1952" lon="1.89508">
        <ele>329.5</ele>
        <time>2024-08-14T17:12:51.961Z</time>
      </trkpt>
      <trkpt lat="43.19521" lon="1.89537">
        <ele>330.9</ele>
        <time>2024-08-14T17:12:57.491Z</time>
      </trkpt>
      <trkpt lat="43.19525" lon="1.89545">
        <ele>331.6</ele>
        <time>2024-08-14T17:13:03.023Z</time>
      </trkpt>
      <trkpt lat="43.19518" lon="1.89575">
        <ele>332.09</ele>
        <time>2024-08-14T17:13:08.560Z</time>
      </trkpt>
      <trkpt lat="43.19513" lon="1.89576">
        <ele>332.21</ele>
        <time>2024-08-14T17:13:14.099Z</time>
      </trkpt>
      <trkpt lat="43.19509" lon="1.8958">
        <ele>332.16</ele>
        <time>2024-08-14T17:13:19.639Z</time>
      </trkpt>
      <trkpt lat="43.19502" lon="1.89588">
        <ele>331.95</ele>
        <time>2024-08-14T17:13:25.181Z</time>
      </trkpt>
      <trkpt lat="43.195" lon="1.89595">
        <ele>331.71</ele>
        <time>2024-08-14T17:13:30.724Z</time>
      </trkpt>
      <trkpt lat="43.19501" lon="1.89604">
        <ele>331.42</ele>
        <time>2024-08-14T17:13:36.269Z</time>
      </trkpt>
      <trkpt lat="43.19499" lon="1.89605">
        <ele>334.47</ele>
        <time>2024-08-14T17:13:41.815Z</time>
      </trkpt>
    </trkseg>
  </trk>
</gpx>